Return to Metar
SPECI CYNL 192017Z AUTO ///// 3SM SCT003 BKN008 OVC012 M15/M17 A2988 RMK AO1 SLP175
SPECI CYNL 192015Z AUTO ///// 2 1/2SM SCT003 BKN008 OVC011 M14/M17 A2988 RMK AO1 SLP175
METAR CYNL 192000Z AUTO ///// 8SM FEW003 SCT006 OVC009 M14/M17 A2988 RMK AO1 SLP173
SPECI CYNL 191953Z AUTO 31005KT 8SM FEW004 OVC009 M14/M17 A2987 RMK AO1 SLP172
SPECI CYNL 191949Z AUTO 30005KT 8SM FEW007 OVC010 M14/M17 A2987 RMK AO1 SLP171
SPECI CYNL 191948Z AUTO ///// 9SM FEW007 OVC009 M14/M17 A2987 RMK AO1 SLP171
SPECI CYNL 191947Z AUTO ///// 9SM FEW007 OVC010 M14/M17 A2987 RMK AO1 SLP171
SPECI CYNL 191910Z AUTO 31007KT 9SM BKN010 OVC012 M15/M17 A2986 RMK AO1 SLP168
SPECI CYNL 191908Z AUTO 29008KT 9SM BKN009 OVC012 M15/M17 A2986 RMK AO1 SLP168
METAR CYNL 191900Z AUTO 29007KT 9SM FEW009 OVC012 M15/M17 A2986 RMK AO1 SLP168
METAR CYNL 191800Z AUTO 31006KT 4SM BKN013 M14/M17 A2985 RMK AO1 SLP163
METAR CYNL 191700Z AUTO ///// 9SM BKN012 OVC015 M14/M17 A2984 RMK AO1 PRESRR SLP157
SPECI CYNL 191646Z AUTO ///// 3SM BKN012 OVC014 M14/M16 A2983 RMK AO1 SLP155
SPECI CYNL 191645Z AUTO 29007KT 2SM BKN011 OVC014 M14/M16 A2983 RMK AO1 SLP155
SPECI CYNL 191642Z AUTO 31005KT 1 3/4SM BKN011 OVC014 M14/M16 A2983 RMK AO1 SLP154
SPECI CYNL 191641Z AUTO ///// 2 1/2SM BKN011 OVC015 M14/M16 A2983 RMK AO1 SLP154
SPECI CYNL 191624Z AUTO ///// 9SM OVC010 M13/M16 A2983 RMK AO1 SLP153
METAR CYNL 191600Z AUTO ///// 9SM FEW003 BKN009 OVC012 M13/M15 A2982 RMK AO1 SLP148
SPECI CYNL 191550Z AUTO ///// 7SM FEW003 BKN009 OVC012 M13/M15 A2981 RMK AO1 SLP146
SPECI CYNL 191542Z AUTO ///// 4SM FEW006 SCT009 OVC012 M12/M15 A2981 RMK AO1 SLP145
SPECI CYNL 191541Z AUTO ///// 3SM VV012 M12/M15 A2981 RMK AO1 SLP145
SPECI CYNL 191539Z AUTO ///// 2SM VV012 M12/M15 A2981 RMK AO1 SLP145
SPECI CYNL 191538Z AUTO ///// 1 1/2SM VV012 M12/M14 A2981 RMK AO1 SLP144
SPECI CYNL 191535Z AUTO ///// 1 1/4SM VV012 M12/M14 A2981 RMK AO1 SLP144
SPECI CYNL 191534Z AUTO ///// 1 3/4SM VV012 M12/M14 A2981 RMK AO1 SLP143
SPECI CYNL 191533Z AUTO ///// 1 3/4SM FEW006 BKN009 OVC012 M12/M14 A2981 RMK AO1 SLP143
SPECI CYNL 191532Z AUTO ///// 2 1/2SM FEW006 BKN010 OVC012 M12/M14 A2981 RMK AO1 SLP143
SPECI CYNL 191529Z AUTO ///// 6SM FEW006 BKN010 OVC017 M12/M14 A2981 RMK AO1 SLP143
SPECI CYNL 191520Z AUTO ///// 9SM BKN009 BKN011 OVC017 M12/M14 A2981 RMK AO1 SLP143
SPECI CYNL 191515Z AUTO ///// 9SM SCT009 BKN012 OVC017 M12/M14 A2981 RMK AO1 SLP143
SPECI CYNL 191505Z AUTO ///// 9SM SCT011 BKN013 OVC016 M12/M14 A2980 RMK AO1 SLP142
METAR CYNL 191500Z AUTO ///// 9SM SCT012 OVC016 M12/M14 A2980 RMK AO1 SLP141
SPECI CYNL 191459Z AUTO ///// 9SM SCT012 OVC016 M12/M14 A2980 RMK AO1 SLP141
SPECI CYNL 191449Z AUTO ///// 9SM BKN013 OVC016 M12/M14 A2980 RMK AO1 PRESRR SLP140
SPECI CYNL 191441Z AUTO ///// 9SM SCT012 OVC016 M12/M14 A2980 RMK AO1 PRESRR SLP139
METAR CYNL 191400Z AUTO ///// 9SM OVC011 M11/M13 A2979 RMK AO1 PRESRR SLP135
METAR CYNL 191300Z AUTO ///// 9SM FEW011 OVC020 M11/M13 A2976 RMK AO1 SLP127
SPECI CYNL 191233Z AUTO ///// 9SM SCT010 BKN019 OVC029 M11/M13 A2975 RMK AO1 SLP124
METAR CYNL 191200Z AUTO 31006KT 9SM OVC010 M11/M13 A2975 RMK AO1 SLP122
SPECI CYNL 191111Z AUTO 32006KT 9SM SCT008 BKN011 OVC017 M10/M12 A2974 RMK AO1 SLP117
METAR CYNL 191100Z AUTO 31006KT 9SM BKN008 OVC011 M10/M12 A2973 RMK AO1 SLP115
SPECI CYNL 191030Z AUTO 31007KT 7SM SCT003 BKN005 OVC010 M10/M12 A2972 RMK AO1 SLP112
SPECI CYNL 191029Z AUTO 31006KT 7SM BKN004 BKN007 OVC010 M10/M12 A2972 RMK AO1 SLP112
SPECI CYNL 191027Z AUTO 31006KT 5SM SCT003 BKN005 BKN007 M10/M12 A2972 RMK AO1 SLP112
SPECI CYNL 191018Z AUTO 31005KT 5SM BKN004 BKN007 OVC010 M10/M12 A2972 RMK AO1 SLP111
SPECI CYNL 191017Z AUTO 31006KT 5SM SCT003 BKN005 BKN007 M10/M12 A2972 RMK AO1 SLP111
SPECI CYNL 191015Z AUTO 32006KT 8SM BKN004 OVC007 M10/M12 A2972 RMK AO1 SLP111
SPECI CYNL 191013Z AUTO 31009KT 5SM SCT004 OVC006 M10/M12 A2972 RMK AO1 SLP111
SPECI CYNL 191010Z AUTO 31006KT 5SM BKN004 OVC006 M10/M12 A2972 RMK AO1 SLP111
SPECI CYNL 191008Z AUTO 33007KT 8SM OVC005 M10/M12 A2972 RMK AO1 SLP111
METAR CYNL 191000Z AUTO 32007KT 4SM BKN004 OVC006 M10/M12 A2972 RMK AO1 SLP111
SPECI CYNL 190956Z AUTO 31008KT 4SM BKN003 OVC005 M10/M12 A2972 RMK AO1 SLP110
SPECI CYNL 190955Z AUTO 31008KT 3SM SCT003 OVC005 M10/M12 A2972 RMK AO1 SLP110
SPECI CYNL 190954Z AUTO 31008KT 2 1/2SM SCT003 OVC005 M10/M12 A2972 RMK AO1 SLP109
SPECI CYNL 190951Z AUTO 30008KT 3SM OVC005 M10/M12 A2972 RMK AO1 SLP109
SPECI CYNL 190948Z AUTO 31009KT 2 1/2SM OVC005 M10/M12 A2972 RMK AO1 SLP109
SPECI CYNL 190938Z AUTO 31007KT 4SM OVC005 M10/M11 A2971 RMK AO1 SLP108
SPECI CYNL 190916Z AUTO 30006KT 3SM BKN004 BKN008 OVC011 M09/M11 A2971 RMK AO1 SLP106
SPECI CYNL 190915Z AUTO 31006KT 2 1/2SM BKN004 BKN008 OVC011 M09/M11 A2971 RMK AO1 SLP106
SPECI CYNL 190912Z AUTO 31008KT 5SM BKN004 BKN009 OVC011 M09/M11 A2971 RMK AO1 SLP106
SPECI CYNL 190903Z AUTO 31008KT 3SM FEW003 SCT005 BKN008 M09/M11 A2971 RMK AO1 SLP105
SPECI CYNL 190902Z AUTO 31007KT 2SM FEW003 BKN008 OVC011 M09/M11 A2971 RMK AO1 SLP105
SPECI CYNL 190901Z AUTO 31006KT 1 1/2SM FEW003 BKN009 BKN011 M09/M11 A2971 RMK AO1 SLP105
METAR CYNL 190900Z AUTO 31005KT 1 1/4SM FEW003 BKN009 BKN011 M09/M11 A2970 RMK AO1 SLP104
SPECI CYNL 190855Z AUTO 30005KT 1 1/4SM BKN009 OVC015 M09/M11 A2970 RMK AO1 SLP104
SPECI CYNL 190854Z AUTO 31007KT 1 1/4SM SCT009 BKN011 OVC015 M09/M11 A2970 RMK AO1 SLP103
SPECI CYNL 190853Z AUTO 30008KT 1 3/4SM SCT009 BKN011 OVC015 M09/M11 A2970 RMK AO1 SLP103
SPECI CYNL 190852Z AUTO 30005KT 2 1/2SM BKN009 OVC015 M09/M11 A2970 RMK AO1 SLP103
SPECI CYNL 190849Z AUTO 30006KT 3SM SCT009 BKN011 OVC015 M09/M11 A2970 RMK AO1 SLP103
SPECI CYNL 190848Z AUTO 30007KT 3SM BKN009 OVC015 M09/M11 A2970 RMK AO1 SLP103
SPECI CYNL 190844Z AUTO 30006KT 9SM SCT009 OVC016 M09/M11 A2970 RMK AO1 SLP103
SPECI CYNL 190834Z AUTO 31004KT 3SM VV015 M09/M11 A2970 RMK AO1 SLP103
SPECI CYNL 190833Z AUTO 30005KT 2SM VV015 M09/M11 A2970 RMK AO1 SLP103
SPECI CYNL 190830Z AUTO 30004KT 1 3/4SM VV014 M09/M11 A2970 RMK AO1 SLP103
SPECI CYNL 190829Z AUTO 31005KT 2 1/2SM VV015 M09/M11 A2970 RMK AO1 SLP103
SPECI CYNL 190807Z AUTO 31006KT 7SM FEW014 BKN019 M09/M11 A2970 RMK AO1 SLP103
METAR CYNL 190800Z AUTO 31007KT 9SM FEW019 M09/M11 A2970 RMK AO1 SLP103
SPECI CYNL 190724Z AUTO 31009G15KT 7SM FEW008 SCT014 M09/M11 A2969 RMK AO1 SLP100
SPECI CYNL 190720Z AUTO 30010G15KT 9SM SCT010 M09/M11 A2969 RMK AO1 SLP100
SPECI CYNL 190718Z AUTO 31007G15KT 9SM SCT010 BKN016 M09/M11 A2969 RMK AO1 SLP100
SPECI CYNL 190710Z AUTO 31008KT 7SM SCT008 BKN012 M09/M11 A2969 RMK AO1 SLP099
SPECI CYNL 190705Z AUTO 30010KT 3SM VV010 M09/M11 A2969 RMK AO1 SLP098
SPECI CYNL 190702Z AUTO 31006KT 2SM VV011 M09/M11 A2969 RMK AO1 SLP098
SPECI CYNL 190701Z AUTO 30007KT 1 3/4SM VV012 M09/M11 A2969 RMK AO1 SLP098
METAR CYNL 190700Z AUTO 30007G16KT 2SM VV012 M09/M11 A2969 RMK AO1 SLP098
SPECI CYNL 190658Z AUTO 30007G16KT 2 1/2SM VV012 M09/M11 A2969 RMK AO1 SLP097
SPECI CYNL 190655Z AUTO 31008G16KT 3SM VV010 M09/M11 A2969 RMK AO1 SLP097
SPECI CYNL 190654Z AUTO 30009G16KT 3SM VV009 M09/M11 A2969 RMK AO1 SLP097
SPECI CYNL 190652Z AUTO 30009G16KT 2SM VV008 M09/M11 A2969 RMK AO1 SLP097
SPECI CYNL 190645Z AUTO 30008KT 1 3/4SM VV007 M09/M10 A2968 RMK AO1 SLP096
SPECI CYNL 190640Z AUTO 30011KT 2 1/2SM VV008 M09/M10 A2968 RMK AO1 SLP096
SPECI CYNL 190638Z AUTO 31007KT 3SM VV009 M09/M10 A2968 RMK AO1 SLP096
SPECI CYNL 190634Z AUTO 31006KT 2 1/2SM VV011 M08/M10 A2968 RMK AO1 SLP095
SPECI CYNL 190629Z AUTO 31006KT 4SM VV010 M08/M10 A2968 RMK AO1 SLP094
SPECI CYNL 190626Z AUTO 30005KT 4SM VV009 M08/M10 A2968 RMK AO1 SLP094
SPECI CYNL 190609Z AUTO 30007KT 3SM VV013 M08/M10 A2968 RMK AO1 SLP093
METAR CYNL 190600Z AUTO 30006KT 2 1/2SM VV013 M08/M10 A2968 RMK AO1 SLP093
SPECI CYNL 190549Z AUTO 31006KT 2 1/2SM VV011 M08/M10 A2967 RMK AO1 SLP090
SPECI CYNL 190547Z AUTO 31006KT 3SM VV011 M08/M10 A2967 RMK AO1 SLP090
SPECI CYNL 190542Z AUTO 30006KT 2SM VV013 M08/M10 A2967 RMK AO1 SLP090
SPECI CYNL 190540Z AUTO 30006KT 1 3/4SM VV014 M08/M10 A2967 RMK AO1 SLP089
SPECI CYNL 190533Z AUTO 30005KT 2 1/2SM VV015 M08/M10 A2967 RMK AO1 SLP089
SPECI CYNL 190529Z AUTO 31006KT 2 1/2SM VV014 M08/M10 A2967 RMK AO1 SLP089
SPECI CYNL 190526Z AUTO 31006KT 3SM VV014 M08/M10 A2967 RMK AO1 SLP089
SPECI CYNL 190519Z AUTO 31006KT 5SM VV015 M08/M10 A2967 RMK AO1 SLP089
METAR CYNL 190500Z AUTO 31006KT 4SM VV012 M08/M09 A2966 RMK AO1 SLP087
SPECI CYNL 190452Z AUTO 30006KT 3SM VV010 M08/M09 A2966 RMK AO1 SLP085
SPECI CYNL 190449Z AUTO 30007KT 3SM VV008 M08/M09 A2966 RMK AO1 SLP085
SPECI CYNL 190446Z AUTO 30007KT 2 1/2SM VV009 M08/M09 A2966 RMK AO1 SLP085
SPECI CYNL 190444Z AUTO 30006KT 3SM VV011 M08/M09 A2966 RMK AO1 SLP085
SPECI CYNL 190440Z AUTO 30008KT 2 1/2SM VV012 M07/M09 A2966 RMK AO1 SLP085
SPECI CYNL 190439Z AUTO 30009KT 3SM VV012 M07/M09 A2966 RMK AO1 SLP085
SPECI CYNL 190430Z AUTO 30008KT 2 1/2SM VV014 M07/M09 A2966 RMK AO1 SLP084
SPECI CYNL 190421Z AUTO 28004KT 4SM FEW009 SCT012 OVC016 M07/M09 A2966 RMK AO1 SLP083
SPECI CYNL 190413Z AUTO 28003KT 3SM VV016 M07/M09 A2966 RMK AO1 SLP083
SPECI CYNL 190404Z AUTO 28002KT 2 1/2SM VV018 M07/M09 A2966 RMK AO1 SLP083
SPECI CYNL 190403Z AUTO 27002KT 3SM VV018 M07/M09 A2966 RMK AO1 SLP083
METAR CYNL 190400Z AUTO 00000KT 2SM VV015 M07/M09 A2966 RMK AO1 SLP083
SPECI CYNL 190359Z AUTO 00000KT 2SM VV014 M07/M09 A2966 RMK AO1 SLP083
SPECI CYNL 190344Z AUTO 00000KT 1 1/2SM VV010 M07/M09 A2965 RMK AO1 SLP082
SPECI CYNL 190343Z AUTO 00000KT 1 1/4SM VV010 M07/M09 A2965 RMK AO1 SLP082
SPECI CYNL 190341Z AUTO 00000KT 1 1/4SM VV009 M07/M09 A2965 RMK AO1 SLP082
SPECI CYNL 190336Z AUTO 00000KT 1 1/2SM VV009 M07/M09 A2965 RMK AO1 SLP082
SPECI CYNL 190331Z AUTO 00000KT 1 3/4SM VV010 M07/M09 A2965 RMK AO1 SLP081
SPECI CYNL 190327Z AUTO 00000KT 2SM VV010 M07/M09 A2965 RMK AO1 SLP081
SPECI CYNL 190321Z AUTO 00000KT 2SM VV009 M07/M09 A2965 RMK AO1 SLP081
SPECI CYNL 190319Z AUTO 00000KT 1 3/4SM VV009 M07/M09 A2965 RMK AO1 SLP081
SPECI CYNL 190313Z AUTO 31002KT 1 3/4SM VV012 M07/M09 A2965 RMK AO1 SLP080
SPECI CYNL 190308Z AUTO 31002KT 2 1/2SM OVC014 M07/M09 A2965 RMK AO1 SLP080
SPECI CYNL 190305Z AUTO 00000KT 3SM OVC014 M07/M09 A2965 RMK AO1 SLP080
SPECI CYNL 190302Z AUTO 00000KT 2 1/2SM OVC014 M07/M09 A2965 RMK AO1 SLP080
METAR CYNL 190300Z AUTO 31002KT 3SM BKN014 M07/M09 A2965 RMK AO1 SLP080
SPECI CYNL 190258Z AUTO 00000KT 3SM BKN014 M07/M09 A2965 RMK AO1 SLP079
SPECI CYNL 190255Z AUTO 30002KT 2 1/2SM BKN014 M07/M09 A2965 RMK AO1 SLP079
SPECI CYNL 190254Z AUTO 31002KT 3SM BKN014 M07/M09 A2964 RMK AO1 SLP078
SPECI CYNL 190248Z AUTO 00000KT 2 1/2SM BKN015 M07/M09 A2964 RMK AO1 SLP077
SPECI CYNL 190242Z AUTO 00000KT 8SM BKN015 M07/M09 A2964 RMK AO1 SLP077
SPECI CYNL 190229Z AUTO 00000KT 9SM FEW009 SCT017 M07/M09 A2964 RMK AO1 SLP077
SPECI CYNL 190215Z AUTO 00000KT 9SM FEW006 SCT009 BKN019 M07/M09 A2964 RMK AO1 SLP076
SPECI CYNL 190214Z AUTO 00000KT 9SM FEW006 SCT009 BKN013 M07/M09 A2964 RMK AO1 SLP076
SPECI CYNL 190209Z AUTO 09002KT 6SM VV009 M07/M09 A2964 RMK AO1 SLP076
SPECI CYNL 190201Z AUTO 00000KT 9SM FEW006 BKN013 BKN020 M07/M09 A2964 RMK AO1 SLP075
METAR CYNL 190200Z AUTO 00000KT 9SM FEW006 SCT013 BKN020 M07/M09 A2964 RMK AO1 SLP075
SPECI CYNL 190159Z AUTO 00000KT 9SM FEW006 SCT013 BKN020 M07/M09 A2964 RMK AO1 SLP075
SPECI CYNL 190158Z AUTO 00000KT 9SM FEW006 SCT012 BKN014 M07/M09 A2964 RMK AO1 SLP075
SPECI CYNL 190155Z AUTO 00000KT 9SM FEW006 SCT009 BKN015 M07/M09 A2964 RMK AO1 SLP075
SPECI CYNL 190152Z AUTO 10002KT 6SM SCT007 BKN012 BKN017 M07/M09 A2963 RMK AO1 SLP074
SPECI CYNL 190147Z AUTO 09002KT 3SM VV008 M07/M09 A2963 RMK AO1 SLP073
SPECI CYNL 190145Z AUTO 09003KT 2SM VV009 M07/M09 A2963 RMK AO1 SLP073
SPECI CYNL 190142Z AUTO 09003KT 1 1/2SM VV011 M07/M09 A2963 RMK AO1 SLP073
SPECI CYNL 190139Z AUTO 09003KT 1 1/4SM VV012 M07/M09 A2963 RMK AO1 SLP073
SPECI CYNL 190137Z AUTO 09003KT 1 1/2SM VV013 M07/M09 A2963 RMK AO1 SLP073
SPECI CYNL 190136Z AUTO 10003KT 1 1/4SM VV013 M07/M09 A2963 RMK AO1 SLP073
SPECI CYNL 190134Z AUTO 09003KT 1 1/2SM VV014 M07/M09 A2963 RMK AO1 SLP073
SPECI CYNL 190131Z AUTO 09004KT 1 3/4SM VV016 M07/M09 A2963 RMK AO1 SLP073
SPECI CYNL 190114Z AUTO 10003KT 2 1/2SM FEW010 OVC018 M07/M09 A2963 RMK AO1 SLP073
METAR CYNL 190100Z AUTO 10003KT 8SM FEW009 OVC019 M07/M09 A2963 RMK AO1 SLP073
SPECI CYNL 190046Z AUTO 10003KT 9SM FEW008 SCT012 BKN015 M07/M09 A2963 RMK AO1 SLP071
SPECI CYNL 190039Z AUTO 10003KT 8SM FEW007 SCT008 BKN014 M07/M09 A2963 RMK AO1 SLP071
SPECI CYNL 190037Z AUTO 10003KT 5SM FEW007 SCT008 BKN015 M07/M09 A2963 RMK AO1 SLP071
SPECI CYNL 190033Z AUTO 09005KT 3SM VV015 M07/M09 A2962 RMK AO1 SLP070
SPECI CYNL 190031Z AUTO 09004KT 2 1/2SM VV014 M07/M09 A2962 RMK AO1 SLP070
SPECI CYNL 190024Z AUTO 09005KT 3SM VV010 M07/M09 A2962 RMK AO1 SLP069
SPECI CYNL 190023Z AUTO 09005KT 3SM VV009 M07/M09 A2962 RMK AO1 SLP069
METAR CYNL 190000Z AUTO 09005KT 2SM VV007 M07/M09 A2962 RMK AO1 SLP068
SPECI CYNL 182345Z AUTO 09005KT 2 1/2SM VV009 M07/M09 A2962 RMK AO1 SLP067
SPECI CYNL 182335Z AUTO 09005KT 3SM VV008 M07/M09 A2962 RMK AO1 SLP067
SPECI CYNL 182325Z AUTO 09006KT 2SM VV007 M07/M09 A2961 RMK AO1 SLP066
SPECI CYNL 182324Z AUTO 09005KT 1 3/4SM VV007 M07/M09 A2961 RMK AO1 SLP066
SPECI CYNL 182316Z AUTO 08006KT 2 1/2SM VV009 M07/M09 A2961 RMK AO1 SLP066
SPECI CYNL 182313Z AUTO 08006KT 2 1/2SM VV010 M07/M09 A2961 RMK AO1 SLP066
SPECI CYNL 182301Z AUTO 08005KT 6SM VV010 M07/M09 A2961 RMK AO1 SLP065
METAR CYNL 182300Z AUTO 08005KT 7SM VV009 M07/M09 A2961 RMK AO1 SLP065
SPECI CYNL 182259Z AUTO 09006KT 7SM VV009 M07/M09 A2961 RMK AO1 SLP065
SPECI CYNL 182241Z AUTO 08006KT 3SM VV012 M07/M08 A2961 RMK AO1 SLP064
SPECI CYNL 182237Z AUTO 08006KT 2SM VV011 M07/M08 A2961 RMK AO1 SLP064
SPECI CYNL 182233Z AUTO 08006KT 1 3/4SM VV013 M07/M08 A2961 RMK AO1 SLP063
SPECI CYNL 182229Z AUTO 08006KT 2SM VV014 M07/M08 A2960 RMK AO1 SLP062
SPECI CYNL 182227Z AUTO 08006KT 1 1/2SM VV014 M07/M08 A2960 RMK AO1 SLP062
SPECI CYNL 182224Z AUTO 08006KT 1 1/4SM VV013 M07/M08 A2961 RMK AO1 SLP063
SPECI CYNL 182222Z AUTO 08006KT 1 1/2SM VV013 M07/M08 A2961 RMK AO1 SLP063
SPECI CYNL 182214Z AUTO 09005KT 2SM VV011 M07/M08 A2961 RMK AO1 SLP063
SPECI CYNL 182213Z AUTO 09005KT 1 3/4SM VV010 M07/M08 A2961 RMK AO1 SLP063
SPECI CYNL 182206Z AUTO 08005KT 1 1/2SM VV009 M07/M08 A2960 RMK AO1 SLP062
METAR CYNL 182200Z AUTO 08006KT 1 1/2SM VV010 M07/M08 A2960 RMK AO1 SLP061
SPECI CYNL 182157Z AUTO 07005KT 1 3/4SM VV012 M07/M08 A2960 RMK AO1 SLP061
SPECI CYNL 182154Z AUTO 08005KT 2 1/2SM VV013 M07/M08 A2960 RMK AO1 SLP061
SPECI CYNL 182152Z AUTO 08005KT 3SM VV014 M07/M08 A2960 RMK AO1 SLP061
SPECI CYNL 182128Z AUTO 09005KT 7SM VV019 M07/M08 A2960 RMK AO1 SLP059
METAR CYNL 182100Z AUTO 09006KT 9SM FEW007 BKN026 M07/M08 A2959 RMK AO1 SLP056
SPECI CYNL 182043Z AUTO 08006KT 9SM SCT007 BKN025 BKN034 M07/M08 A2958 RMK AO1 SLP055
SPECI CYNL 182030Z AUTO 07005KT 9SM BKN007 BKN034 M06/M08 A2958 RMK AO1 SLP053
SPECI CYNL 182029Z AUTO 07005KT 9SM SCT007 BKN025 BKN035 M06/M08 A2958 RMK AO1 SLP053
SPECI CYNL 182009Z AUTO 08007KT 9SM BKN006 BKN034 M06/M08 A2957 RMK AO1 SLP051
SPECI CYNL 182005Z AUTO 07007KT 8SM SCT006 BKN033 OVC037 M06/M08 A2957 RMK AO1 SLP051
METAR CYNL 182000Z AUTO 08006KT 8SM SCT006 BKN008 BKN033 M06/M08 A2957 RMK AO1 SLP050
SPECI CYNL 181958Z AUTO 09006KT 8SM FEW005 SCT006 BKN008 M06/M08 A2957 RMK AO1 SLP050
SPECI CYNL 181941Z AUTO 07007KT 9SM SCT008 OVC033 M06/M08 A2957 RMK AO1 SLP049
SPECI CYNL 181935Z AUTO 08008KT 9SM SCT009 BKN011 OVC032 M06/M08 A2957 RMK AO1 SLP049
SPECI CYNL 181925Z AUTO 08007KT 4SM FEW008 SCT011 OVC032 M06/M08 A2957 RMK AO1 SLP048
SPECI CYNL 181922Z AUTO 07008KT 3SM VV014 M06/M08 A2956 RMK AO1 SLP047
SPECI CYNL 181920Z AUTO 07008KT 3SM FEW009 SCT011 OVC032 M06/M08 A2956 RMK AO1 SLP047
SPECI CYNL 181919Z AUTO 07008KT 2 1/2SM SCT010 OVC032 M06/M08 A2956 RMK AO1 SLP047
SPECI CYNL 181909Z AUTO 08008KT 4SM SCT008 OVC032 M06/M07 A2956 RMK AO1 SLP046
SPECI CYNL 181907Z AUTO 07008KT 4SM SCT008 BKN012 OVC032 M06/M07 A2956 RMK AO1 SLP046
SPECI CYNL 181905Z AUTO 08007KT 4SM BKN008 OVC032 M06/M07 A2956 RMK AO1 SLP046
SPECI CYNL 181902Z AUTO 08007KT 4SM VV015 M06/M07 A2956 RMK AO1 SLP045
METAR CYNL 181900Z AUTO 08007KT 5SM BKN008 OVC012 M06/M07 A2956 RMK AO1 SLP045
SPECI CYNL 181857Z AUTO 08007KT 6SM BKN008 BKN011 OVC013 M06/M07 A2956 RMK AO1 SLP045
SPECI CYNL 181830Z AUTO 07007KT 3SM FEW008 BKN010 OVC030 M06/M07 A2956 RMK AO1 SLP044
SPECI CYNL 181827Z AUTO 08008KT 2 1/2SM BKN010 OVC030 M06/M07 A2956 RMK AO1 SLP044
SPECI CYNL 181817Z AUTO 09008KT 7SM SCT008 BKN011 OVC030 M06/M07 A2955 RMK AO1 SLP042
METAR CYNL 181800Z AUTO 06006KT 5SM BKN008 OVC012 M05/M06 A2955 RMK AO1 SLP042
SPECI CYNL 181746Z AUTO 09008KT 4SM BKN008 OVC011 M05/M06 A2955 RMK AO1 PRESRR SLP039
SPECI CYNL 181735Z AUTO 09007KT 4SM SCT007 BKN011 OVC019 M05/M06 A2954 RMK AO1 PRESRR SLP039
SPECI CYNL 181732Z AUTO 09008KT 3SM SCT007 BKN009 BKN012 M05/M06 A2954 RMK AO1 PRESRR SLP039
SPECI CYNL 181725Z AUTO 10007KT 3SM SCT007 BKN010 BKN011 M05/M06 A2954 RMK AO1 PRESRR SLP039
SPECI CYNL 181724Z AUTO 10007KT 4SM SCT006 BKN009 BKN011 M05/M06 A2954 RMK AO1 PRESRR SLP039
SPECI CYNL 181721Z AUTO 09006KT 3SM VV013 M05/M06 A2954 RMK AO1 PRESRR SLP038
SPECI CYNL 181719Z AUTO 10007KT 3SM VV015 M05/M06 A2954 RMK AO1 PRESRR SLP038
SPECI CYNL 181717Z AUTO 10007KT 4SM SCT007 BKN010 OVC018 M05/M06 A2954 RMK AO1 PRESRR SLP038
SPECI CYNL 181716Z AUTO 10007KT 3SM BKN007 OVC018 M05/M06 A2954 RMK AO1 PRESRR SLP037
SPECI CYNL 181715Z AUTO 10008KT 3SM VV015 M05/M06 A2954 RMK AO1 PRESRR SLP037
SPECI CYNL 181714Z AUTO 09008KT 2 1/2SM BKN007 BKN010 OVC018 M05/M06 A2954 RMK AO1 PRESRR SLP037
SPECI CYNL 181713Z AUTO 08008KT 3SM BKN007 BKN011 OVC018 M05/M06 A2954 RMK AO1 PRESRR SLP037
SPECI CYNL 181706Z AUTO 09006KT 2 1/2SM BKN007 OVC010 M05/M06 A2954 RMK AO1 PRESRR SLP036
SPECI CYNL 181705Z AUTO 09006KT 3SM BKN007 OVC017 M05/M06 A2954 RMK AO1 PRESRR SLP036
SPECI CYNL 181703Z AUTO 09005KT 2 1/2SM BKN007 OVC010 M05/M06 A2954 RMK AO1 PRESRR SLP036
METAR CYNL 181700Z AUTO 10006KT 4SM BKN007 OVC010 M05/M06 A2954 RMK AO1 PRESRR SLP036
METAR CYNL 181600Z AUTO 09007KT 3SM OVC005 M05/M06 A2951 RMK AO1 SLP028
SPECI CYNL 181549Z AUTO 09010KT 3SM BKN005 OVC006 M05/M06 A2951 RMK AO1 SLP026
SPECI CYNL 181543Z AUTO 09009KT 3SM OVC004 M05/M06 A2950 RMK AO1 SLP025
SPECI CYNL 181540Z AUTO 09009KT 2 1/2SM OVC004 M05/M06 A2950 RMK AO1 SLP025
SPECI CYNL 181539Z AUTO 09008KT 3SM OVC004 M05/M06 A2950 RMK AO1 SLP025
SPECI CYNL 181536Z AUTO 09010KT 2 1/2SM OVC004 M05/M06 A2950 RMK AO1 SLP025
SPECI CYNL 181528Z AUTO 09008KT 3SM OVC004 M04/M05 A2951 RMK AO1 SLP025
SPECI CYNL 181516Z AUTO 09008KT 2SM OVC003 M04/M05 A2951 RMK AO1 SLP026
METAR CYNL 181500Z AUTO 10006KT 1 1/2SM OVC003 M04/M05 A2951 RMK AO1 SLP026
SPECI CYNL 181441Z AUTO 09006KT 1 3/4SM OVC004 M04/M05 A2950 RMK AO1 SLP024
SPECI CYNL 181433Z AUTO 09008KT 2 1/2SM OVC003 M04/M05 A2950 RMK AO1 SLP023
SPECI CYNL 181428Z AUTO 10006KT 3SM OVC003 M04/M05 A2950 RMK AO1 SLP023
SPECI CYNL 181420Z AUTO 09007KT 2SM OVC003 M04/M05 A2950 RMK AO1 SLP022
SPECI CYNL 181414Z AUTO 08006KT 1 1/2SM OVC003 M04/M05 A2949 RMK AO1 SLP020
METAR CYNL 181400Z AUTO 07007KT 1SM OVC002 M04/M05 A2949 RMK AO1 SLP019
SPECI CYNL 181359Z AUTO 08008KT 3/4SM OVC002 M04/M05 A2949 RMK AO1 SLP019
SPECI CYNL 181340Z AUTO 07006KT 1 1/4SM OVC002 M04/M05 A2948 RMK AO1 SLP016
SPECI CYNL 181339Z AUTO 07006KT 1 1/2SM OVC002 M04/M05 A2948 RMK AO1 SLP016
SPECI CYNL 181332Z AUTO 08007KT 1SM OVC002 M04/M05 A2948 RMK AO1 SLP015
SPECI CYNL 181321Z AUTO 07007KT 1 1/4SM OVC003 M04/M05 A2948 RMK AO1 SLP015
SPECI CYNL 181314Z AUTO 08007KT 1 3/4SM OVC003 M04/M05 A2948 RMK AO1 SLP014
METAR CYNL 181300Z AUTO 08008KT 2 1/2SM OVC003 M04/M04 A2948 RMK AO1 SLP014
SPECI CYNL 181248Z AUTO 08006KT 2 1/2SM OVC003 M03/M04 A2947 RMK AO1 SLP012
SPECI CYNL 181242Z AUTO 08009KT 3SM OVC003 M03/M04 A2947 RMK AO1 SLP011
SPECI CYNL 181240Z AUTO 07007KT 3SM OVC002 M03/M04 A2947 RMK AO1 SLP011
SPECI CYNL 181228Z AUTO 08005KT 2SM OVC002 M03/M04 A2946 RMK AO1 SLP009
SPECI CYNL 181225Z AUTO 07005KT 1 1/2SM OVC002 M03/M04 A2946 RMK AO1 SLP009
SPECI CYNL 181219Z AUTO 08005KT 1SM VV002 M03/M04 A2946 RMK AO1 SLP008
SPECI CYNL 181217Z AUTO 08005KT 3/4SM OVC002 M03/M04 A2946 RMK AO1 SLP008
SPECI CYNL 181216Z AUTO 07004KT 1SM OVC002 M03/M04 A2946 RMK AO1 SLP008
SPECI CYNL 181210Z AUTO 09005KT 3/4SM VV002 M03/M04 A2946 RMK AO1 SLP008
METAR CYNL 181200Z AUTO 09004KT 1/2SM VV002 M03/M04 A2946 RMK AO1 SLP008
SPECI CYNL 181105Z AUTO 10006KT 5/8SM OVC002 M03/M04 A2944 RMK AO1 SLP002
SPECI CYNL 181104Z AUTO 10006KT 3/4SM OVC002 M03/M04 A2944 RMK AO1 SLP002
SPECI CYNL 181102Z AUTO 10005KT 1SM OVC002 M03/M04 A2944 RMK AO1 SLP002
SPECI CYNL 181101Z AUTO 10005KT 3/4SM OVC002 M03/M04 A2944 RMK AO1 SLP001
METAR CYNL 181100Z AUTO 10005KT 1SM OVC002 M03/M04 A2944 RMK AO1 SLP001
SPECI CYNL 181054Z AUTO 10004KT 1 1/4SM OVC002 M03/M04 A2944 RMK AO1 SLP001
SPECI CYNL 181052Z AUTO 10006KT 3/4SM OVC002 M03/M04 A2944 RMK AO1 SLP001
METAR CYNL 181000Z AUTO 11006KT 1/4SM VV002 M03/M03 A2943 RMK AO1 SLP996
SPECI CYNL 180956Z AUTO 11006KT 1/4SM VV002 M03/M03 A2943 RMK AO1 SLP996
SPECI CYNL 180954Z AUTO 10007KT 1/8SM VV002 M03/M03 A2943 RMK AO1 SLP996
SPECI CYNL 180947Z AUTO 10005KT 1/4SM VV002 M03/M03 A2943 RMK AO1 SLP996
SPECI CYNL 180946Z AUTO 11006KT 1/8SM VV002 M03/M03 A2943 RMK AO1 SLP996
SPECI CYNL 180943Z AUTO 09004KT 1/4SM VV002 M03/M03 A2943 RMK AO1 SLP996
SPECI CYNL 180938Z AUTO 09005KT 1/8SM VV002 M03/M03 A2943 RMK AO1 SLP996
SPECI CYNL 180928Z AUTO 10005KT 1/4SM VV002 M03/M03 A2943 RMK AO1 SLP996
SPECI CYNL 180925Z AUTO 08004KT 1/8SM VV002 M03/M03 A2943 RMK AO1 SLP996
SPECI CYNL 180921Z AUTO 09004KT 1/4SM VV002 M03/M03 A2942 RMK AO1 SLP995
SPECI CYNL 180920Z AUTO 10004KT 1/8SM VV002 M03/M03 A2942 RMK AO1 SLP995
SPECI CYNL 180910Z AUTO 10005KT 1/4SM VV002 M03/M03 A2942 RMK AO1 SLP994
SPECI CYNL 180909Z AUTO 11005KT 1/8SM VV002 M03/M03 A2942 RMK AO1 SLP994
SPECI CYNL 180902Z AUTO 12004KT 1/4SM VV002 M03/M03 A2942 RMK AO1 SLP995
SPECI CYNL 180901Z AUTO 12005KT 1/8SM VV002 M03/M03 A2942 RMK AO1 SLP995
METAR CYNL 180900Z AUTO 11005KT 1/4SM VV002 M03/M03 A2942 RMK AO1 SLP994
SPECI CYNL 180857Z AUTO 12005KT 1/4SM VV002 M03/M03 A2942 RMK AO1 SLP994
SPECI CYNL 180855Z AUTO 11006KT 1/8SM VV002 M03/M03 A2942 RMK AO1 SLP994
SPECI CYNL 180802Z AUTO 11005KT 1/2SM VV002 M03/M03 A2941 RMK AO1 SLP991
METAR CYNL 180800Z AUTO 10003KT 3/4SM VV002 M03/M03 A2941 RMK AO1 SLP991
SPECI CYNL 180755Z AUTO 10005KT 5/8SM VV002 M03/M03 A2941 RMK AO1 SLP990
SPECI CYNL 180754Z AUTO 10005KT 3/4SM VV002 M03/M03 A2941 RMK AO1 SLP990
SPECI CYNL 180749Z AUTO 11004KT 1SM VV002 M03/M03 A2941 RMK AO1 SLP990
SPECI CYNL 180747Z AUTO 11004KT 3/4SM VV002 M03/M03 A2941 RMK AO1 SLP990
SPECI CYNL 180745Z AUTO 11004KT 1SM VV002 M03/M03 A2941 RMK AO1 SLP989
SPECI CYNL 180736Z AUTO 11004KT 5/8SM VV002 M03/M03 A2940 RMK AO1 SLP988
SPECI CYNL 180735Z AUTO 11004KT 3/4SM VV002 M03/M03 A2940 RMK AO1 SLP988
SPECI CYNL 180733Z AUTO 11004KT 1SM VV002 M03/M03 A2940 RMK AO1 SLP988
SPECI CYNL 180729Z AUTO 11006KT 5/8SM VV002 M03/M03 A2940 RMK AO1 SLP987
SPECI CYNL 180728Z AUTO 11005KT 3/4SM VV002 M03/M03 A2940 RMK AO1 SLP987
SPECI CYNL 180727Z AUTO 11005KT 1SM OVC002 M03/M03 A2940 RMK AO1 SLP987
SPECI CYNL 180726Z AUTO 12005KT 3/4SM OVC002 M03/M03 A2940 RMK AO1 SLP987
SPECI CYNL 180724Z AUTO 12006KT 1SM OVC002 M03/M03 A2940 RMK AO1 SLP987
SPECI CYNL 180716Z AUTO 11004KT 1 3/4SM OVC002 M03/M03 A2940 RMK AO1 SLP987
SPECI CYNL 180708Z AUTO 11004KT 2SM OVC002 M03/M03 A2940 RMK AO1 SLP987
SPECI CYNL 180707Z AUTO 11005KT 1 1/2SM OVC002 M03/M03 A2940 RMK AO1 SLP987
SPECI CYNL 180706Z AUTO 11005KT 1 1/4SM OVC002 M03/M03 A2940 RMK AO1 SLP987
SPECI CYNL 180705Z AUTO 12005KT 1 1/2SM OVC002 M03/M03 A2940 RMK AO1 SLP987
SPECI CYNL 180704Z AUTO 12005KT 2SM OVC002 M03/M03 A2940 RMK AO1 SLP987
SPECI CYNL 180702Z AUTO 11003KT 3SM OVC002 M03/M03 A2940 RMK AO1 SLP987
METAR CYNL 180700Z AUTO 13005KT 2SM OVC002 M03/M03 A2940 RMK AO1 SLP987
SPECI CYNL 180657Z AUTO 12005KT 2SM OVC002 M03/M03 A2940 RMK AO1 SLP987
SPECI CYNL 180651Z AUTO 13003KT 3SM OVC002 M03/M03 A2940 RMK AO1 SLP987
SPECI CYNL 180648Z AUTO 12004KT 2 1/2SM OVC002 M03/M03 A2940 RMK AO1 SLP986
SPECI CYNL 180624Z AUTO 12004KT 5SM OVC002 M03/M03 A2940 RMK AO1 SLP986
METAR CYNL 180600Z AUTO 13005KT 7SM OVC003 M03/M03 A2939 RMK AO1 SLP986
METAR CYNL 180500Z AUTO 12004KT 7SM OVC004 M03/M03 A2939 RMK AO1 SLP985
SPECI CYNL 180449Z AUTO 12005KT 4SM BKN004 OVC006 M03/M03 A2939 RMK AO1 SLP984
SPECI CYNL 180442Z AUTO 13004KT 3SM OVC005 M02/M03 A2939 RMK AO1 SLP985
SPECI CYNL 180438Z AUTO 12004KT 2 1/2SM OVC005 M02/M03 A2939 RMK AO1 SLP985
METAR CYNL 180400Z AUTO 14006KT 9SM OVC005 M02/M03 A2938 RMK AO1 SLP984
SPECI CYNL 180340Z AUTO 14006KT 3SM OVC005 M02/M03 A2938 RMK AO1 SLP984
SPECI CYNL 180339Z AUTO 14006KT 2 1/2SM OVC005 M02/M03 A2938 RMK AO1 SLP984
METAR CYNL 180300Z AUTO 14005KT 5SM OVC006 M02/M03 A2938 RMK AO1 SLP984
SPECI CYNL 180256Z AUTO 13005KT 3SM OVC006 M02/M03 A2938 RMK AO1 SLP985
SPECI CYNL 180247Z AUTO 14005KT 2 1/2SM BKN006 OVC008 M02/M03 A2938 RMK AO1 SLP984
SPECI CYNL 180231Z AUTO 14005KT 6SM SCT007 BKN009 OVC013 M02/M03 A2939 RMK AO1 SLP985
SPECI CYNL 180219Z AUTO 14004KT 3SM SCT006 OVC013 M02/M03 A2939 RMK AO1 SLP986
SPECI CYNL 180216Z AUTO 15004KT 2SM FEW006 SCT009 OVC013 M02/M03 A2939 RMK AO1 SLP986
SPECI CYNL 180215Z AUTO 15004KT 1 1/2SM SCT006 OVC013 M02/M03 A2939 RMK AO1 SLP986
SPECI CYNL 180209Z AUTO 15005KT 1 1/4SM SCT005 OVC013 M02/M03 A2939 RMK AO1 SLP986
SPECI CYNL 180208Z AUTO 15005KT 1 1/2SM SCT005 OVC013 M02/M03 A2939 RMK AO1 SLP986
SPECI CYNL 180207Z AUTO 14005KT 1 3/4SM BKN005 OVC013 M02/M03 A2939 RMK AO1 SLP986
SPECI CYNL 180204Z AUTO 14006KT 2 1/2SM BKN005 OVC013 M02/M03 A2939 RMK AO1 SLP986
METAR CYNL 180200Z AUTO 14004KT 4SM BKN005 BKN007 OVC013 M02/M03 A2939 RMK AO1 SLP986
SPECI CYNL 180133Z AUTO 13006KT 9SM OVC005 M02/M03 A2939 RMK AO1 SLP987
METAR CYNL 180100Z AUTO 13004KT 9SM OVC004 M02/M03 A2939 RMK AO1 SLP989
METAR CYNL 180000Z AUTO 11004KT 9SM OVC004 M03/M03 A2939 RMK AO1 SLP989
SPECI CYNL 172306Z AUTO 12005KT 9SM OVC004 M03/M03 A2940 RMK AO1 SLP990
METAR CYNL 172300Z AUTO 13007KT 9SM OVC005 M03/M03 A2940 RMK AO1 SLP991
METAR CYNL 172200Z AUTO 12005KT 9SM BKN005 OVC060 M03/M03 A2940 RMK AO1 PRESFR SLP991
METAR CYNL 172100Z AUTO 15007KT 9SM OVC006 M03/M03 A2942 RMK AO1 PRESFR SLP999
SPECI CYNL 172010Z AUTO 16009KT 9SM BKN006 M03/M04 A2944 RMK AO1 PRESFR SLP005
METAR CYNL 172000Z AUTO 16007KT 9SM FEW005 SCT110 M03/M04 A2944 RMK AO1 PRESFR SLP006
SPECI CYNL 171931Z AUTO 17007KT 9SM SCT006 BKN110 M03/M04 A2945 RMK AO1 PRESFR SLP012
METAR CYNL 171900Z AUTO 17006KT 9SM OVC006 M03/M04 A2947 RMK AO1 PRESFR SLP016
SPECI CYNL 171804Z AUTO 17007KT 9SM OVC005 M04/M05 A2949 RMK AO1 SLP027
METAR CYNL 171800Z AUTO 17006KT 9SM BKN004 OVC006 M04/M05 A2950 RMK AO1 SLP027
METAR CYNL 171700Z AUTO 16006KT 9SM OVC004 M04/M06 A2952 RMK AO1 SLP035
METAR CYNL 171600Z AUTO 16007KT 9SM OVC004 M05/M07 A2953 RMK AO1 PRESFR SLP040
METAR CYNL 171500Z AUTO 16007KT 9SM OVC004 M06/M07 A2955 RMK AO1 PRESFR SLP049
SPECI CYNL 171409Z AUTO 17005KT 9SM OVC004 M06/M07 A2957 RMK AO1 PRESFR SLP056
METAR CYNL 171400Z AUTO 17006KT 9SM OVC005 M06/M07 A2958 RMK AO1 PRESFR SLP057
SPECI CYNL 171336Z AUTO 17007KT 9SM OVC005 M06/M07 A2958 RMK AO1 PRESFR SLP061
METAR CYNL 171300Z AUTO 17006KT 9SM OVC004 M06/M07 A2960 RMK AO1 PRESFR SLP067
METAR CYNL 171200Z AUTO 18005KT 9SM OVC003 M06/M08 A2964 RMK AO1 PRESFR SLP079
METAR CYNL 171100Z AUTO 18007KT 9SM OVC003 M07/M08 A2966 RMK AO1 PRESFR SLP087
METAR CYNL 171000Z AUTO 18008KT 9SM OVC003 M07/M08 A2968 RMK AO1 SLP097
METAR CYNL 170900Z AUTO 17008KT 7SM OVC003 M07/M08 A2971 RMK AO1 PRESFR SLP104
SPECI CYNL 170840Z AUTO 18008KT 5SM OVC003 M07/M09 A2971 RMK AO1 PRESFR SLP104
SPECI CYNL 170821Z AUTO 17007KT 3SM OVC002 M07/M09 A2972 RMK AO1 PRESFR SLP107
SPECI CYNL 170814Z AUTO 17006KT 2SM OVC002 M07/M09 A2972 RMK AO1 PRESFR SLP109
SPECI CYNL 170811Z AUTO 18006KT 1 3/4SM OVC002 M07/M09 A2973 RMK AO1 PRESFR SLP112
SPECI CYNL 170804Z AUTO 18005KT 2 1/2SM OVC002 M07/M09 A2974 RMK AO1 PRESFR SLP115
METAR CYNL 170800Z AUTO 18004KT 4SM OVC002 M07/M09 A2973 RMK AO1 PRESFR SLP113
SPECI CYNL 170750Z AUTO 18005KT 5SM OVC002 M07/M09 A2974 RMK AO1 PRESFR SLP114
METAR CYNL 170700Z AUTO 19006KT 9SM OVC003 M07/M09 A2976 RMK AO1 PRESFR SLP122
METAR CYNL 170600Z AUTO 19007KT 9SM OVC003 M08/M09 A2978 RMK AO1 SLP130
METAR CYNL 170500Z AUTO 19007KT 9SM OVC004 M08/M09 A2979 RMK AO1 PRESFR SLP133
METAR CYNL 170400Z AUTO 14004KT 9SM OVC003 M08/M09 A2982 RMK AO1 PRESFR SLP143
METAR CYNL 170300Z AUTO 18004KT 9SM OVC003 M08/M10 A2985 RMK AO1 SLP154
METAR CYNL 170200Z AUTO 17005KT 9SM OVC004 M08/M10 A2986 RMK AO1 SLP158
METAR CYNL 170100Z AUTO 00000KT 9SM OVC003 M08/M10 A2988 RMK AO1 SLP164
METAR CYNL 170000Z AUTO 00000KT 9SM OVC004 M09/M10 A2989 RMK AO1 SLP169
SPECI CYNL 162333Z AUTO 28004KT 9SM BKN004 OVC006 M09/M10 A2990 RMK AO1 PRESRR SLP170
METAR CYNL 162300Z AUTO 28006KT 9SM OVC005 M09/M10 A2991 RMK AO1 PRESRR SLP176
METAR CYNL 162200Z AUTO 27007KT 9SM OVC005 M09/M10 A2989 RMK AO1 SLP168
METAR CYNL 162100Z AUTO 30005KT 9SM OVC006 M08/M10 A2988 RMK AO1 SLP165
METAR CYNL 162000Z AUTO 28005KT 9SM OVC007 M08/M10 A2988 RMK AO1 SLP166
METAR CYNL 161900Z AUTO 29006KT 9SM OVC006 M08/M10 A2987 RMK AO1 SLP163
METAR CYNL 161800Z AUTO 32004KT 9SM OVC007 M08/M10 A2987 RMK AO1 SLP163
METAR CYNL 161700Z AUTO 32006KT 7SM OVC006 M08/M09 A2986 RMK AO1 SLP161
METAR CYNL 161600Z AUTO 30005KT 9SM OVC006 M08/M09 A2986 RMK AO1 PRESRR SLP159
METAR CYNL 161500Z AUTO 31003KT 9SM BKN007 BKN008 OVC010 M08/M10 A2983 RMK AO1 PRESRR SLP150
METAR CYNL 161400Z AUTO 32005KT 9SM BKN005 OVC008 M08/M10 A2981 RMK AO1 SLP142
SPECI CYNL 161333Z AUTO 33006KT 9SM BKN005 OVC013 M08/M09 A2979 RMK AO1 PRESRR SLP139
METAR CYNL 161300Z AUTO 32005KT 7SM OVC004 M08/M09 A2979 RMK AO1 PRESRR SLP136
SPECI CYNL 161259Z AUTO 33006KT 6SM OVC004 M08/M09 A2979 RMK AO1 PRESRR SLP136
SPECI CYNL 161246Z AUTO 33007KT 3SM OVC005 M08/M09 A2978 RMK AO1 SLP135
SPECI CYNL 161245Z AUTO 32006KT 2 1/2SM OVC005 M08/M09 A2978 RMK AO1 SLP135
SPECI CYNL 161244Z AUTO 32006KT 3SM OVC005 M08/M09 A2978 RMK AO1 SLP135
SPECI CYNL 161241Z AUTO 33006KT 2 1/2SM OVC005 M08/M09 A2978 RMK AO1 SLP135
METAR CYNL 161200Z AUTO 32004KT 9SM OVC005 M07/M09 A2976 RMK AO1 SLP127
SPECI CYNL 161151Z AUTO 32005KT 9SM OVC005 M07/M09 A2976 RMK AO1 PRESRR SLP127
SPECI CYNL 161131Z AUTO 32004KT 3SM OVC003 M07/M09 A2975 RMK AO1 PRESRR SLP125
SPECI CYNL 161125Z AUTO 32004KT 2SM OVC003 M07/M09 A2975 RMK AO1 PRESRR SLP124
SPECI CYNL 161124Z AUTO 31004KT 1 3/4SM OVC003 M07/M09 A2975 RMK AO1 PRESRR SLP124
SPECI CYNL 161123Z AUTO 31005KT 2SM OVC003 M07/M09 A2975 RMK AO1 PRESRR SLP124
SPECI CYNL 161117Z AUTO 32005KT 1 1/2SM OVC003 M07/M09 A2975 RMK AO1 PRESRR SLP122
SPECI CYNL 161103Z AUTO 32005KT 1SM OVC003 M07/M09 A2975 RMK AO1 PRESRR SLP123
METAR CYNL 161100Z AUTO 32007KT 1SM OVC002 M07/M09 A2974 RMK AO1 PRESRR SLP122
SPECI CYNL 161057Z AUTO 32004KT 1 1/4SM OVC002 M07/M09 A2974 RMK AO1 SLP122
SPECI CYNL 161056Z AUTO 33003KT 1 1/2SM OVC002 M07/M09 A2974 RMK AO1 SLP121
SPECI CYNL 161055Z AUTO 32002KT 1 1/4SM OVC002 M07/M09 A2974 RMK AO1 SLP121
SPECI CYNL 161052Z AUTO 32002KT 1 3/4SM OVC002 M07/M09 A2974 RMK AO1 SLP122
SPECI CYNL 161042Z AUTO 30003KT 1SM OVC002 M07/M09 A2974 RMK AO1 SLP121
SPECI CYNL 161039Z AUTO 28003KT 3/4SM OVC002 M08/M09 A2974 RMK AO1 SLP120
SPECI CYNL 161037Z AUTO 28003KT 1SM OVC002 M08/M09 A2974 RMK AO1 SLP120
SPECI CYNL 161035Z AUTO 28003KT 3/4SM OVC002 M08/M09 A2973 RMK AO1 SLP119
SPECI CYNL 161034Z AUTO 28003KT 5/8SM OVC002 M08/M09 A2973 RMK AO1 SLP119
SPECI CYNL 161032Z AUTO 28003KT 1SM OVC002 M08/M09 A2973 RMK AO1 SLP118
SPECI CYNL 161027Z AUTO 29002KT 3/4SM OVC002 M08/M09 A2973 RMK AO1 SLP117
SPECI CYNL 161020Z AUTO 28002KT 1SM OVC002 M08/M09 A2973 RMK AO1 SLP118
SPECI CYNL 161019Z AUTO 28002KT 3/4SM OVC002 M08/M09 A2973 RMK AO1 SLP118
SPECI CYNL 161018Z AUTO 28002KT 5/8SM OVC002 M08/M09 A2973 RMK AO1 SLP117
SPECI CYNL 161014Z AUTO 00000KT 3/4SM OVC003 M08/M09 A2973 RMK AO1 SLP117
SPECI CYNL 161012Z AUTO 00000KT 1 1/4SM OVC003 M08/M09 A2973 RMK AO1 SLP117
SPECI CYNL 161011Z AUTO 00000KT 1 1/2SM OVC003 M08/M09 A2973 RMK AO1 SLP117
SPECI CYNL 161006Z AUTO 00000KT 1SM OVC003 M08/M09 A2973 RMK AO1 SLP117
SPECI CYNL 161002Z AUTO 00000KT 5/8SM OVC003 M08/M09 A2972 RMK AO1 SLP115
METAR CYNL 161000Z AUTO 00000KT 3/4SM OVC003 M08/M09 A2972 RMK AO1 SLP115
SPECI CYNL 160959Z AUTO 00000KT 1SM OVC003 M08/M09 A2972 RMK AO1 SLP115
SPECI CYNL 160955Z AUTO 26002KT 3/4SM OVC003 M08/M09 A2972 RMK AO1 SLP115
SPECI CYNL 160933Z AUTO 00000KT 1 1/4SM OVC003 M08/M10 A2971 RMK AO1 SLP113
SPECI CYNL 160927Z AUTO 27002KT 1 3/4SM OVC003 M08/M10 A2971 RMK AO1 SLP113
SPECI CYNL 160920Z AUTO 27002KT 2SM VV003 M08/M10 A2971 RMK AO1 SLP112
SPECI CYNL 160917Z AUTO 27003KT 1 3/4SM VV003 M08/M10 A2971 RMK AO1 SLP112
SPECI CYNL 160905Z AUTO 00000KT 2SM VV004 M08/M10 A2971 RMK AO1 SLP111
METAR CYNL 160900Z AUTO 00000KT 1 3/4SM VV004 M08/M10 A2970 RMK AO1 SLP110
SPECI CYNL 160850Z AUTO 00000KT 1 3/4SM OVC004 M09/M10 A2970 RMK AO1 SLP110
SPECI CYNL 160815Z AUTO 25003KT 2 1/2SM OVC004 M09/M10 A2970 RMK AO1 SLP109
SPECI CYNL 160812Z AUTO 24003KT 3SM OVC004 M09/M10 A2970 RMK AO1 SLP109
SPECI CYNL 160810Z AUTO 23004KT 2 1/2SM OVC004 M09/M10 A2970 RMK AO1 SLP108
METAR CYNL 160800Z AUTO 24003KT 4SM OVC004 M09/M11 A2969 RMK AO1 SLP107
SPECI CYNL 160749Z AUTO 24003KT 5SM OVC004 M09/M11 A2969 RMK AO1 SLP107
METAR CYNL 160700Z AUTO 21003KT 9SM OVC006 M09/M11 A2969 RMK AO1 SLP105
METAR CYNL 160600Z AUTO 18004KT 9SM OVC008 M09/M12 A2969 RMK AO1 SLP107
SPECI CYNL 160536Z AUTO 18002KT 9SM OVC009 M10/M12 A2969 RMK AO1 SLP108
METAR CYNL 160500Z AUTO 18005KT 9SM OVC011 M10/M12 A2969 RMK AO1 SLP110
METAR CYNL 160400Z AUTO 17005KT 9SM OVC014 M10/M13 A2969 RMK AO1 SLP111
SPECI CYNL 160331Z AUTO 17005KT 9SM OVC014 M10/M13 A2968 RMK AO1 SLP111
METAR CYNL 160300Z AUTO 16006KT 9SM OVC015 M11/M13 A2969 RMK AO1 SLP113
METAR CYNL 160200Z AUTO 17006KT 9SM OVC017 M11/M14 A2970 RMK AO1 SLP118
SPECI CYNL 160131Z AUTO 17007KT 3SM OVC019 M11/M14 A2970 RMK AO1 SLP119
SPECI CYNL 160129Z AUTO 16008KT 2 1/2SM OVC019 M11/M14 A2970 RMK AO1 SLP119
METAR CYNL 160100Z AUTO 16009KT 9SM OVC020 M11/M14 A2970 RMK AO1 SLP120
SPECI CYNL 160032Z AUTO 16009KT 7SM BKN023 BKN034 OVC049 M12/M14 A2971 RMK AO1 PRESFR SLP122
METAR CYNL 160000Z AUTO 16008KT 4SM FEW009 SCT013 OVC047 M12/M15 A2971 RMK AO1 PRESFR SLP123
SPECI CYNL 152359Z AUTO 16009KT 3SM SCT009 OVC046 M12/M15 A2971 RMK AO1 PRESFR SLP124
SPECI CYNL 152356Z AUTO ///// 3SM SCT009 BKN012 OVC046 M12/M15 A2971 RMK AO1 PRESFR SLP125
SPECI CYNL 152354Z AUTO ///// 2 1/2SM SCT009 BKN013 OVC046 M12/M15 A2971 RMK AO1 PRESFR SLP126
SPECI CYNL 152352Z AUTO ///// 2SM BKN009 BKN012 OVC046 M12/M15 A2971 RMK AO1 PRESFR SLP125
SPECI CYNL 152348Z AUTO ///// 2SM VV010 M12/M15 A2971 RMK AO1 PRESFR SLP125
SPECI CYNL 152347Z AUTO 16012KT 1 3/4SM VV010 M12/M15 A2971 RMK AO1 PRESFR SLP126
SPECI CYNL 152342Z AUTO ///// 1 1/2SM VV009 M12/M15 A2971 RMK AO1 PRESFR SLP126
SPECI CYNL 152340Z AUTO 16010KT 1 1/2SM VV010 M12/M15 A2971 RMK AO1 PRESFR SLP127
SPECI CYNL 152336Z AUTO 16009KT 1 1/4SM VV011 M12/M15 A2972 RMK AO1 PRESFR SLP128
SPECI CYNL 152334Z AUTO 16008KT 1 1/2SM VV011 M12/M15 A2972 RMK AO1 PRESFR SLP129
SPECI CYNL 152331Z AUTO 16008KT 1 1/4SM VV010 M12/M15 A2972 RMK AO1 PRESFR SLP129
SPECI CYNL 152327Z AUTO 16009KT 1SM VV009 M12/M15 A2972 RMK AO1 PRESFR SLP129
SPECI CYNL 152324Z AUTO ///// 1 1/4SM VV011 M12/M15 A2972 RMK AO1 PRESFR SLP129
SPECI CYNL 152319Z AUTO ///// 1 1/2SM VV010 M12/M15 A2972 RMK AO1 PRESFR SLP129
SPECI CYNL 152318Z AUTO ///// 1 1/2SM VV009 M12/M15 A2972 RMK AO1 PRESFR SLP129
SPECI CYNL 152308Z AUTO ///// 1SM VV008 M12/M15 A2973 RMK AO1 PRESFR SLP131
SPECI CYNL 152306Z AUTO ///// 3/4SM VV009 M12/M15 A2973 RMK AO1 PRESFR SLP131
SPECI CYNL 152302Z AUTO ///// 1SM VV009 M12/M15 A2973 RMK AO1 PRESFR SLP132
METAR CYNL 152300Z AUTO ///// 3/4SM VV009 M12/M15 A2973 RMK AO1 PRESFR SLP132
SPECI CYNL 152250Z AUTO ///// 3/4SM VV009 M12/M15 A2974 RMK AO1 PRESFR SLP136
SPECI CYNL 152249Z AUTO ///// 1SM VV009 M12/M15 A2974 RMK AO1 PRESFR SLP137
SPECI CYNL 152237Z AUTO ///// 1 1/4SM VV010 M12/M15 A2975 RMK AO1 PRESFR SLP139
SPECI CYNL 152233Z AUTO ///// 1 1/4SM VV009 M12/M15 A2975 RMK AO1 PRESFR SLP139
SPECI CYNL 152203Z AUTO 16008KT 1 1/4SM VV010 M12/M15 A2975 RMK AO1 PRESFR SLP142
SPECI CYNL 152202Z AUTO 16008KT 1 1/2SM VV010 M12/M15 A2976 RMK AO1 PRESFR SLP142
METAR CYNL 152200Z AUTO 15008KT 1 1/4SM VV010 M12/M15 A2976 RMK AO1 PRESFR SLP143
SPECI CYNL 152127Z AUTO ///// 1 1/4SM VV011 M13/M16 A2976 RMK AO1 PRESFR SLP148
SPECI CYNL 152117Z AUTO ///// 1 1/2SM VV011 M13/M16 A2977 RMK AO1 PRESFR SLP149
SPECI CYNL 152114Z AUTO ///// 1 1/4SM VV010 M13/M16 A2977 RMK AO1 PRESFR SLP150
SPECI CYNL 152113Z AUTO ///// 1SM VV009 M13/M16 A2977 RMK AO1 PRESFR SLP151
SPECI CYNL 152109Z AUTO ///// 1 1/4SM VV010 M13/M16 A2978 RMK AO1 PRESFR SLP152
SPECI CYNL 152108Z AUTO ///// 1 1/4SM VV009 M13/M16 A2978 RMK AO1 PRESFR SLP152
SPECI CYNL 152106Z AUTO ///// 1SM VV010 M13/M16 A2978 RMK AO1 PRESFR SLP153
SPECI CYNL 152104Z AUTO 15009KT 1SM VV009 M13/M16 A2978 RMK AO1 PRESFR SLP153
METAR CYNL 152100Z AUTO ///// 1SM VV010 M13/M16 A2978 RMK AO1 PRESFR SLP154
SPECI CYNL 152057Z AUTO ///// 1SM VV011 M13/M16 A2978 RMK AO1 PRESFR SLP155
SPECI CYNL 152055Z AUTO ///// 3/4SM VV011 M13/M16 A2978 RMK AO1 PRESFR SLP156
SPECI CYNL 152052Z AUTO ///// 1SM VV010 M13/M16 A2978 RMK AO1 PRESFR SLP156
SPECI CYNL 152050Z AUTO ///// 3/4SM VV010 M13/M16 A2978 RMK AO1 PRESFR SLP156
SPECI CYNL 152040Z AUTO ///// 5/8SM VV011 M13/M16 A2979 RMK AO1 PRESFR SLP158
SPECI CYNL 152038Z AUTO ///// 3/4SM VV011 M13/M16 A2979 RMK AO1 PRESFR SLP158
SPECI CYNL 152035Z AUTO ///// 1SM VV011 M13/M16 A2979 RMK AO1 PRESFR SLP159
SPECI CYNL 152029Z AUTO ///// 3/4SM VV012 M13/M16 A2979 RMK AO1 PRESFR SLP160
SPECI CYNL 152024Z AUTO 14008KT 1 1/4SM VV013 M13/M16 A2980 RMK AO1 PRESFR SLP161
SPECI CYNL 152021Z AUTO 15009KT 1 1/2SM VV012 M13/M16 A2980 RMK AO1 PRESFR SLP161
SPECI CYNL 152009Z AUTO ///// 1 1/4SM VV012 M13/M16 A2980 RMK AO1 PRESFR SLP161
SPECI CYNL 152006Z AUTO ///// 1 1/2SM VV012 M13/M16 A2979 RMK AO1 PRESFR SLP161
SPECI CYNL 152005Z AUTO ///// 1 1/4SM VV012 M13/M16 A2979 RMK AO1 PRESFR SLP160
METAR CYNL 152000Z AUTO ///// 1 1/2SM VV014 M13/M16 A2980 RMK AO1 PRESFR SLP162
SPECI CYNL 151955Z AUTO ///// 1 1/2SM VV014 M13/M17 A2980 RMK AO1 PRESFR SLP165
SPECI CYNL 151949Z AUTO ///// 1 1/2SM VV015 M14/M17 A2981 RMK AO1 PRESFR SLP167
SPECI CYNL 151948Z AUTO ///// 1 1/2SM VV014 M14/M17 A2981 RMK AO1 PRESFR SLP168
SPECI CYNL 151943Z AUTO ///// 1SM VV012 M14/M17 A2981 RMK AO1 PRESFR SLP167
SPECI CYNL 151942Z AUTO ///// 3/4SM VV012 M14/M17 A2981 RMK AO1 PRESFR SLP167
SPECI CYNL 151939Z AUTO ///// 5/8SM VV013 M14/M17 A2981 RMK AO1 PRESFR SLP167
SPECI CYNL 151935Z AUTO ///// 3/4SM VV013 M14/M17 A2981 RMK AO1 PRESFR SLP168
SPECI CYNL 151921Z AUTO ///// 1SM VV011 M14/M17 A2982 RMK AO1 PRESFR SLP171
SPECI CYNL 151909Z AUTO ///// 3/4SM VV012 M14/M17 A2983 RMK AO1 PRESFR SLP175
SPECI CYNL 151907Z AUTO ///// 1SM VV012 M14/M17 A2983 RMK AO1 PRESFR SLP175
METAR CYNL 151900Z AUTO ///// 3/4SM VV011 M14/M17 A2984 RMK AO1 PRESFR SLP177
SPECI CYNL 151859Z AUTO ///// 3/4SM VV011 M14/M17 A2984 RMK AO1 PRESFR SLP177
SPECI CYNL 151855Z AUTO ///// 5/8SM VV011 M14/M17 A2983 RMK AO1 PRESFR SLP175
SPECI CYNL 151853Z AUTO ///// 3/4SM VV012 M14/M17 A2983 RMK AO1 PRESFR SLP176
SPECI CYNL 151849Z AUTO ///// 1 1/4SM VV013 M14/M18 A2983 RMK AO1 PRESFR SLP176
SPECI CYNL 151840Z AUTO ///// 1 3/4SM VV013 M14/M18 A2983 RMK AO1 PRESFR SLP176
SPECI CYNL 151833Z AUTO ///// 2SM VV014 M15/M18 A2984 RMK AO1 PRESFR SLP179
SPECI CYNL 151829Z AUTO ///// 2 1/2SM FEW007 BKN016 M15/M18 A2984 RMK AO1 PRESFR SLP179
SPECI CYNL 151822Z AUTO ///// 4SM FEW007 SCT016 BKN036 M15/M18 A2985 RMK AO1 PRESFR SLP181
SPECI CYNL 151815Z AUTO ///// 3SM FEW006 BKN017 OVC037 M15/M18 A2986 RMK AO1 PRESFR SLP184
SPECI CYNL 151814Z AUTO ///// 3SM VV009 M15/M18 A2986 RMK AO1 PRESFR SLP185
SPECI CYNL 151810Z AUTO ///// 3SM VV014 M15/M18 A2986 RMK AO1 PRESFR SLP185
METAR CYNL 151800Z AUTO ///// 4SM VV016 M15/M18 A2987 RMK AO1 PRESFR SLP189
SPECI CYNL 151750Z AUTO ///// 3SM VV015 M15/M19 A2987 RMK AO1 PRESFR SLP190
SPECI CYNL 151747Z AUTO ///// 4SM VV012 M15/M19 A2988 RMK AO1 PRESFR SLP192
SPECI CYNL 151701Z AUTO ///// 3SM FEW016 OVC045 M16/M19 A2990 RMK AO1 PRESFR SLP203
METAR CYNL 151700Z AUTO ///// 2 1/2SM FEW016 OVC045 M16/M19 A2990 RMK AO1 PRESFR SLP203
SPECI CYNL 151658Z AUTO ///// 2 1/2SM FEW015 OVC045 M16/M19 A2990 RMK AO1 PRESFR SLP203
METAR CYNL 151600Z AUTO ///// 9SM OVC048 M17/M20 A2995 RMK AO1 PRESFR SLP221
METAR CYNL 151500Z AUTO 14008KT 9SM SCT048 OVC062 M18/M21 A2998 RMK AO1 PRESFR SLP230
SPECI CYNL 151427Z AUTO ///// 9SM SCT011 BKN066 M18/M21 A3000 RMK AO1 PRESFR SLP236
SPECI CYNL 151426Z AUTO ///// 9SM BKN012 M18/M21 A3000 RMK AO1 PRESFR SLP237
SPECI CYNL 151425Z AUTO ///// 9SM SCT012 BKN015 M18/M21 A3000 RMK AO1 PRESFR SLP237
SPECI CYNL 151413Z AUTO 14010KT 3SM VV013 M18/M21 A3001 RMK AO1 PRESFR SLP239
SPECI CYNL 151404Z AUTO ///// 2SM VV011 M18/M22 A3001 RMK AO1 PRESFR SLP240
METAR CYNL 151400Z AUTO ///// 1 1/2SM VV012 M18/M22 A3001 RMK AO1 PRESFR SLP241
SPECI CYNL 151350Z AUTO ///// 1 3/4SM VV012 M18/M22 A3002 RMK AO1 PRESFR SLP243
SPECI CYNL 151341Z AUTO ///// 2 1/2SM VV010 M18/M22 A3003 RMK AO1 PRESFR SLP247
SPECI CYNL 151339Z AUTO ///// 2 1/2SM VV009 M18/M22 A3003 RMK AO1 PRESFR SLP247
SPECI CYNL 151338Z AUTO ///// 2 1/2SM VV010 M18/M22 A3003 RMK AO1 PRESFR SLP247
SPECI CYNL 151336Z AUTO ///// 3SM FEW009 M18/M22 A3003 RMK AO1 PRESFR SLP246
METAR CYNL 151300Z AUTO 14008KT 9SM CLR M19/M22 A3006 RMK AO1 PRESFR SLP256
METAR CYNL 151200Z AUTO 14004KT 9SM CLR M20/M23 A3008 RMK AO1 SLP265
METAR CYNL 151100Z AUTO 13004KT 9SM FEW120 M20/M24 A3010 RMK AO1 PRESFR SLP272
METAR CYNL 151000Z AUTO 00000KT 9SM OVC120 M22/M25 A3012 RMK AO1 PRESFR SLP280
METAR CYNL 150900Z AUTO 00000KT 9SM OVC140 M23/M27 A3015 RMK AO1 SLP289
METAR CYNL 150800Z AUTO 00000KT 9SM BKN140 M24/M28 A3014 RMK AO1 SLP285
METAR CYNL 150700Z AUTO 25003KT 9SM CLR M23/M27 A3014 RMK AO1 SLP286
METAR CYNL 150600Z AUTO 23004KT 9SM BKN150 M23/M27 A3014 RMK AO1 SLP285
METAR CYNL 150500Z AUTO 29004KT 9SM CLR M24/M27 A3014 RMK AO1 SLP286
METAR CYNL 150400Z AUTO 23002KT 9SM CLR M23/M26 A3014 RMK AO1 SLP285
METAR CYNL 150300Z AUTO ///// 9SM CLR M22/M25 A3014 RMK AO1 SLP284
METAR CYNL 150200Z AUTO ///// 9SM CLR M21/M24 A3013 RMK AO1 SLP279
METAR CYNL 150100Z AUTO 30006KT 9SM CLR M21/M24 A3013 RMK AO1 SLP277
METAR CYNL 150000Z AUTO 28005KT 9SM CLR M21/M24 A3012 RMK AO1 SLP276
METAR CYNL 142300Z AUTO 28004KT 9SM CLR M20/M24 A3012 RMK AO1 SLP273
METAR CYNL 142200Z AUTO 31006KT 9SM CLR M18/M23 A3011 RMK AO1 SLP270
METAR CYNL 142100Z AUTO 30007KT 9SM FEW023 M17/M23 A3009 RMK AO1 SLP262
METAR CYNL 142000Z AUTO ///// 9SM FEW022 M17/M23 A3008 RMK AO1 SLP257
METAR CYNL 141900Z AUTO 30009G16KT 9SM CLR M17/M23 A3007 RMK AO1 SLP252
METAR CYNL 141800Z AUTO ///// 9SM CLR M18/M23 A3006 RMK AO1 SLP245
METAR CYNL 141700Z AUTO ///// 9SM CLR M18/M23 A3005 RMK AO1 PRESRR SLP240
METAR CYNL 141600Z AUTO 30009G17KT 9SM FEW017 M19/M23 A3003 RMK AO1 PRESRR SLP230
METAR CYNL 141500Z AUTO ///// 9SM SCT019 M18/M22 A3000 RMK AO1 PRESRR SLP221
SPECI CYNL 141455Z AUTO ///// 9SM SCT019 M18/M22 A3000 RMK AO1 SLP221
SPECI CYNL 141445Z AUTO ///// 4SM SCT017 OVC023 M17/M22 A3000 RMK AO1 SLP218
SPECI CYNL 141442Z AUTO 31012KT 2 1/2SM BKN017 OVC024 M17/M21 A3000 RMK AO1 SLP218
SPECI CYNL 141439Z AUTO ///// 3SM VV018 M17/M21 A2999 RMK AO1 SLP217
SPECI CYNL 141438Z AUTO ///// 2SM VV018 M17/M21 A2999 RMK AO1 SLP217
SPECI CYNL 141435Z AUTO ///// 1 1/2SM VV017 M17/M21 A2999 RMK AO1 SLP216
SPECI CYNL 141431Z AUTO ///// 1 1/4SM VV020 M17/M21 A2999 RMK AO1 SLP216
SPECI CYNL 141429Z AUTO 32010KT 1 1/2SM VV020 M17/M21 A2999 RMK AO1 SLP215
SPECI CYNL 141423Z AUTO 31008KT 2 1/2SM VV019 M17/M21 A2999 RMK AO1 SLP216
SPECI CYNL 141418Z AUTO 31006KT 4SM VV020 M17/M21 A2999 RMK AO1 SLP214
SPECI CYNL 141416Z AUTO 31009KT 2SM VV019 M17/M21 A2999 RMK AO1 SLP214
SPECI CYNL 141413Z AUTO ///// 1 3/4SM VV020 M17/M21 A2999 RMK AO1 SLP213
SPECI CYNL 141411Z AUTO ///// 2SM VV018 M17/M21 A2998 RMK AO1 SLP213
SPECI CYNL 141407Z AUTO ///// 1 1/4SM VV016 M17/M21 A2998 RMK AO1 SLP212
SPECI CYNL 141406Z AUTO ///// 1 1/2SM VV016 M17/M21 A2998 RMK AO1 SLP212
SPECI CYNL 141404Z AUTO ///// 2 1/2SM VV017 M17/M21 A2998 RMK AO1 SLP211
SPECI CYNL 141401Z AUTO ///// 3SM VV016 M17/M21 A2998 RMK AO1 SLP212
METAR CYNL 141400Z AUTO ///// 3SM FEW008 OVC030 M17/M21 A2998 RMK AO1 SLP212
SPECI CYNL 141351Z AUTO ///// 4SM FEW008 OVC030 M17/M21 A2998 RMK AO1 SLP210
SPECI CYNL 141346Z AUTO ///// 4SM OVC030 M17/M21 A2997 RMK AO1 SLP210
SPECI CYNL 141335Z AUTO ///// 4SM OVC029 M17/M21 A2998 RMK AO1 SLP210
SPECI CYNL 141334Z AUTO ///// 2 1/2SM OVC029 M17/M21 A2998 RMK AO1 SLP211
SPECI CYNL 141333Z AUTO ///// 1 3/4SM OVC029 M17/M21 A2998 RMK AO1 SLP211
SPECI CYNL 141332Z AUTO ///// 2 1/2SM OVC029 M17/M21 A2998 RMK AO1 SLP210
SPECI CYNL 141308Z AUTO 30010G17KT 4SM FEW008 SCT012 OVC029 M17/M21 A2997 RMK AO1 SLP209
SPECI CYNL 141302Z AUTO 29008KT 5SM FEW008 BKN017 OVC029 M17/M21 A2997 RMK AO1 SLP209
SPECI CYNL 141301Z AUTO 29008KT 4SM VV014 M17/M21 A2997 RMK AO1 SLP209
METAR CYNL 141300Z AUTO 29008KT 4SM VV015 M17/M21 A2997 RMK AO1 SLP209
SPECI CYNL 141259Z AUTO 29008KT 4SM VV015 M17/M21 A2997 RMK AO1 SLP209
SPECI CYNL 141250Z AUTO 29005KT 4SM VV013 M17/M21 A2997 RMK AO1 SLP209
SPECI CYNL 141224Z AUTO 29007KT 8SM OVC030 M18/M21 A2997 RMK AO1 SLP208
METAR CYNL 141200Z AUTO 28008KT 9SM OVC026 M18/M22 A2996 RMK AO1 SLP206
SPECI CYNL 141149Z AUTO 29008G16KT 9SM OVC025 M18/M22 A2996 RMK AO1 SLP207
METAR CYNL 141100Z AUTO 30007KT 9SM OVC017 M18/M22 A2997 RMK AO1 SLP209
METAR CYNL 141000Z AUTO 31008G16KT 9SM OVC016 M19/M23 A2996 RMK AO1 PRESRR SLP208
SPECI CYNL 140947Z AUTO 32007G18KT 9SM OVC015 M19/M22 A2996 RMK AO1 PRESRR SLP206
SPECI CYNL 140914Z AUTO ///// 9SM OVC014 M18/M22 A2994 RMK AO1 PRESRR SLP199
METAR CYNL 140900Z AUTO 33012G20KT 9SM OVC015 M18/M21 A2993 RMK AO1 PRESRR SLP196
SPECI CYNL 140835Z AUTO 33011G17KT 7SM FEW009 BKN016 OVC025 M17/M21 A2992 RMK AO1 PRESRR SLP190
SPECI CYNL 140817Z AUTO ///// 5SM FEW009 BKN025 M17/M20 A2991 RMK AO1 PRESRR SLP184
SPECI CYNL 140816Z AUTO ///// 5SM FEW009 BKN024 M17/M20 A2991 RMK AO1 PRESRR SLP184
SPECI CYNL 140807Z AUTO 34007KT 9SM OVC024 M16/M20 A2990 RMK AO1 PRESRR SLP181
METAR CYNL 140800Z AUTO ///// 9SM OVC025 M16/M20 A2988 RMK AO1 PRESRR SLP176
SPECI CYNL 140757Z AUTO ///// 9SM FEW008 BKN025 M16/M20 A2988 RMK AO1 PRESRR SLP174
SPECI CYNL 140741Z AUTO ///// 9SM FEW008 OVC024 M16/M19 A2988 RMK AO1 PRESRR SLP175
SPECI CYNL 140734Z AUTO ///// 3SM FEW008 SCT011 OVC026 M15/M19 A2988 RMK AO1 PRESRR SLP172
SPECI CYNL 140733Z AUTO ///// 2 1/2SM FEW008 SCT010 OVC026 M15/M19 A2988 RMK AO1 PRESRR SLP171
SPECI CYNL 140732Z AUTO ///// 1 1/2SM VV009 M15/M18 A2988 RMK AO1 PRESRR SLP171
SPECI CYNL 140729Z AUTO ///// 1SM VV009 M14/M17 A2987 RMK AO1 PRESRR SLP168
SPECI CYNL 140728Z AUTO 34016G22KT 3/4SM FEW009 OVC027 M14/M17 A2987 RMK AO1 PRESRR SLP167
SPECI CYNL 140726Z AUTO ///// 5/8SM FEW011 OVC027 M13/M17 A2986 RMK AO1 PRESRR SLP165
SPECI CYNL 140725Z AUTO ///// 1SM FEW010 OVC027 M13/M16 A2986 RMK AO1 PRESRR SLP164
SPECI CYNL 140724Z AUTO ///// 2SM FEW015 OVC027 M13/M16 A2986 RMK AO1 PRESRR SLP163
SPECI CYNL 140720Z AUTO ///// 3SM OVC027 M13/M16 A2986 RMK AO1 PRESRR SLP162
SPECI CYNL 140717Z AUTO ///// 2 1/2SM BKN027 M13/M16 A2986 RMK AO1 PRESRR SLP162
SPECI CYNL 140704Z AUTO ///// 7SM FEW009 SCT015 BKN029 M13/M16 A2985 RMK AO1 PRESRR SLP159
METAR CYNL 140700Z AUTO ///// 4SM SCT013 BKN029 M13/M16 A2985 RMK AO1 PRESRR SLP159
SPECI CYNL 140653Z AUTO ///// 9SM FEW009 SCT013 BKN029 M13/M16 A2984 RMK AO1 PRESRR SLP157
SPECI CYNL 140646Z AUTO ///// 7SM FEW009 BKN013 M12/M16 A2984 RMK AO1 PRESRR SLP156
SPECI CYNL 140636Z AUTO ///// 3SM VV013 M12/M15 A2984 RMK AO1 PRESRR SLP155
SPECI CYNL 140628Z AUTO ///// 2 1/2SM VV013 M12/M15 A2983 RMK AO1 PRESRR SLP153
SPECI CYNL 140623Z AUTO ///// 3SM VV014 M12/M15 A2983 RMK AO1 PRESRR SLP152
METAR CYNL 140600Z AUTO ///// 4SM VV017 M11/M14 A2982 RMK AO1 PRESRR SLP147
SPECI CYNL 140550Z AUTO ///// 3SM VV015 M11/M14 A2981 RMK AO1 SLP145
SPECI CYNL 140548Z AUTO ///// 2 1/2SM VV015 M11/M14 A2981 RMK AO1 SLP145
SPECI CYNL 140547Z AUTO ///// 2 1/2SM VV014 M11/M14 A2981 RMK AO1 SLP145
SPECI CYNL 140545Z AUTO ///// 3SM VV014 M11/M14 A2981 RMK AO1 SLP145
SPECI CYNL 140543Z AUTO ///// 2 1/2SM VV014 M11/M14 A2981 RMK AO1 SLP145
SPECI CYNL 140541Z AUTO ///// 1 1/2SM VV014 M10/M13 A2981 RMK AO1 SLP144
SPECI CYNL 140539Z AUTO 33012KT 1 3/4SM VV015 M10/M13 A2981 RMK AO1 SLP144
SPECI CYNL 140529Z AUTO 34009G21KT 2 1/2SM VV015 M10/M13 A2980 RMK AO1 WSHFT (05)23 SLP140
SPECI CYNL 140527Z AUTO 34010G21KT 2SM VV013 M10/M12 A2980 RMK AO1 WSHFT (05)23 SLP140
SPECI CYNL 140526Z AUTO 35012G21KT 1 1/2SM VV012 M10/M12 A2980 RMK AO1 WSHFT (05)23 SLP139
SPECI CYNL 140525Z AUTO 35014G21KT 1 1/4SM VV011 M09/M12 A2980 RMK AO1 WSHFT (05)23 SLP138
SPECI CYNL 140524Z AUTO 34016G21KT 3/4SM VV011 M09/M12 A2980 RMK AO1 WSHFT (05)23 SLP138
SPECI CYNL 140523Z AUTO 34013G21KT 5/8SM VV011 M09/M12 A2980 RMK AO1 WSHFT (05)23 SLP137
SPECI CYNL 140521Z AUTO 31010KT 5/8SM VV011 M09/M11 A2979 RMK AO1 SLP136
SPECI CYNL 140520Z AUTO 31008KT 3/4SM VV011 M09/M11 A2979 RMK AO1 SLP135
SPECI CYNL 140516Z AUTO 29010KT 1 1/4SM VV014 M09/M11 A2979 RMK AO1 SLP135
SPECI CYNL 140515Z AUTO 29009KT 1 1/2SM VV014 M09/M11 A2979 RMK AO1 SLP135
SPECI CYNL 140513Z AUTO 30007KT 1 3/4SM VV017 M09/M11 A2979 RMK AO1 SLP134
SPECI CYNL 140509Z AUTO 30009KT 2 1/2SM VV020 M09/M11 A2979 RMK AO1 SLP134
SPECI CYNL 140501Z AUTO 29008KT 3SM VV019 M09/M11 A2979 RMK AO1 SLP134
METAR CYNL 140500Z AUTO 29008KT 2 1/2SM VV018 M09/M11 A2979 RMK AO1 SLP134
SPECI CYNL 140451Z AUTO 29008KT 2 1/2SM VV021 M09/M11 A2979 RMK AO1 SLP134
SPECI CYNL 140418Z AUTO 28009KT 3SM VV022 M09/M11 A2979 RMK AO1 SLP134
SPECI CYNL 140415Z AUTO 28009KT 2SM VV020 M09/M11 A2979 RMK AO1 SLP134
SPECI CYNL 140410Z AUTO 27009KT 1 1/2SM VV016 M09/M11 A2979 RMK AO1 SLP134
SPECI CYNL 140407Z AUTO 28009KT 1 1/2SM VV013 M09/M11 A2979 RMK AO1 SLP134
METAR CYNL 140400Z AUTO 28007KT 1 1/4SM VV014 M09/M11 A2979 RMK AO1 SLP135
SPECI CYNL 140358Z AUTO 28006KT 1 1/2SM VV014 M09/M11 A2979 RMK AO1 SLP137
SPECI CYNL 140353Z AUTO 27006KT 1 3/4SM VV015 M09/M11 A2979 RMK AO1 SLP137
SPECI CYNL 140346Z AUTO 26006KT 2SM VV016 M09/M11 A2979 RMK AO1 SLP136
SPECI CYNL 140344Z AUTO 26007KT 1 3/4SM VV017 M09/M11 A2979 RMK AO1 SLP136
SPECI CYNL 140340Z AUTO 26006KT 2SM VV018 M09/M11 A2979 RMK AO1 SLP136
SPECI CYNL 140333Z AUTO 26005KT 1 3/4SM VV016 M09/M11 A2979 RMK AO1 SLP137
SPECI CYNL 140332Z AUTO 26006KT 2SM VV016 M09/M11 A2979 RMK AO1 SLP138
SPECI CYNL 140331Z AUTO 26006KT 1 3/4SM VV016 M09/M11 A2979 RMK AO1 SLP138
SPECI CYNL 140325Z AUTO 27005KT 2SM VV019 M09/M11 A2980 RMK AO1 SLP138
SPECI CYNL 140319Z AUTO 27006KT 1 3/4SM VV017 M09/M11 A2979 RMK AO1 SLP138
SPECI CYNL 140310Z AUTO 27007KT 2 1/2SM VV021 M09/M11 A2980 RMK AO1 SLP139
SPECI CYNL 140308Z AUTO 27006KT 3SM VV020 M09/M11 A2980 RMK AO1 SLP139
METAR CYNL 140300Z AUTO 26006KT 2 1/2SM VV023 M09/M12 A2980 RMK AO1 SLP140
SPECI CYNL 140259Z AUTO 26006KT 3SM VV024 M09/M12 A2980 RMK AO1 SLP141
SPECI CYNL 140250Z AUTO 25004KT 7SM VV025 M09/M12 A2980 RMK AO1 SLP142
SPECI CYNL 140233Z AUTO 26005KT 6SM VV024 M09/M12 A2980 RMK AO1 SLP142
SPECI CYNL 140226Z AUTO 26006KT 4SM VV025 M09/M12 A2980 RMK AO1 SLP143
SPECI CYNL 140222Z AUTO 26005KT 4SM VV024 M09/M12 A2981 RMK AO1 SLP143
METAR CYNL 140200Z AUTO 26005KT 7SM VV028 M09/M12 A2981 RMK AO1 SLP145
SPECI CYNL 140159Z AUTO 26005KT 7SM VV026 M09/M12 A2981 RMK AO1 SLP145
SPECI CYNL 140155Z AUTO 25005KT 4SM VV015 M09/M12 A2981 RMK AO1 SLP145
SPECI CYNL 140153Z AUTO 26005KT 3SM VV011 M09/M12 A2981 RMK AO1 SLP145
SPECI CYNL 140150Z AUTO 25006KT 2 1/2SM VV014 M09/M12 A2981 RMK AO1 SLP144
SPECI CYNL 140144Z AUTO 26006KT 9SM SCT012 BKN020 M09/M12 A2980 RMK AO1 SLP144
SPECI CYNL 140133Z AUTO 25006KT 9SM VV014 M09/M12 A2981 RMK AO1 SLP144
SPECI CYNL 140123Z AUTO 25004KT 3SM VV015 M09/M12 A2981 RMK AO1 SLP147
SPECI CYNL 140121Z AUTO 26005KT 3SM VV014 M09/M12 A2981 RMK AO1 SLP147
SPECI CYNL 140118Z AUTO 26006KT 2 1/2SM VV014 M09/M12 A2981 RMK AO1 SLP147
SPECI CYNL 140113Z AUTO 25006KT 4SM VV015 M09/M12 A2982 RMK AO1 SLP147
SPECI CYNL 140110Z AUTO 25006KT 5SM VV011 M09/M11 A2982 RMK AO1 SLP148
SPECI CYNL 140103Z AUTO 25005KT 3SM VV009 M09/M11 A2982 RMK AO1 SLP149
METAR CYNL 140100Z AUTO 25005KT 6SM FEW006 SCT015 M09/M11 A2982 RMK AO1 SLP149
SPECI CYNL 140050Z AUTO 25006KT 9SM FEW006 SCT015 M09/M11 A2982 RMK AO1 SLP151
SPECI CYNL 140039Z AUTO 26006KT 9SM FEW005 BKN015 M09/M11 A2983 RMK AO1 SLP152
SPECI CYNL 140034Z AUTO 25006KT 9SM FEW005 BKN014 OVC080 M09/M11 A2983 RMK AO1 SLP153
SPECI CYNL 140030Z AUTO 25007KT 9SM VV014 M09/M11 A2983 RMK AO1 SLP154
SPECI CYNL 140026Z AUTO 25007KT 6SM VV015 M09/M11 A2983 RMK AO1 SLP154
SPECI CYNL 140019Z AUTO 25006KT 7SM VV014 M09/M11 A2984 RMK AO1 SLP155
SPECI CYNL 140016Z AUTO 25007KT 8SM VV015 M09/M11 A2984 RMK AO1 SLP156
SPECI CYNL 140012Z AUTO 25005KT 9SM VV012 M09/M11 A2984 RMK AO1 SLP156
SPECI CYNL 140011Z AUTO 25005KT 9SM FEW009 SCT013 BKN017 M09/M11 A2984 RMK AO1 SLP156
SPECI CYNL 140010Z AUTO 25006KT 9SM FEW009 BKN013 OVC082 M09/M11 A2984 RMK AO1 SLP157
SPECI CYNL 140004Z AUTO 25007KT 9SM SCT009 BKN017 OVC082 M09/M11 A2984 RMK AO1 SLP156
SPECI CYNL 140001Z AUTO 25006KT 9SM SCT009 BKN014 BKN017 M09/M11 A2984 RMK AO1 SLP155
METAR CYNL 140000Z AUTO 24007KT 9SM BKN009 BKN017 OVC084 M09/M11 A2984 RMK AO1 SLP155
SPECI CYNL 132357Z AUTO 24006KT 9SM VV009 M09/M11 A2984 RMK AO1 SLP155
SPECI CYNL 132351Z AUTO 24006KT 9SM VV014 M09/M11 A2983 RMK AO1 SLP154
SPECI CYNL 132345Z AUTO 23005KT 9SM VV015 M09/M11 A2983 RMK AO1 SLP154
SPECI CYNL 132340Z AUTO 24005KT 9SM VV010 M09/M11 A2984 RMK AO1 SLP154
SPECI CYNL 132336Z AUTO 24004KT 9SM VV009 M09/M11 A2984 RMK AO1 SLP155
SPECI CYNL 132329Z AUTO 24006KT 9SM VV014 M09/M11 A2984 RMK AO1 SLP156
SPECI CYNL 132322Z AUTO 25006KT 9SM VV018 M09/M11 A2985 RMK AO1 SLP158
SPECI CYNL 132304Z AUTO 25006KT 9SM SCT022 BKN036 BKN045 M09/M11 A2985 RMK AO1 SLP160
METAR CYNL 132300Z AUTO 24004KT 9SM VV021 M09/M11 A2985 RMK AO1 SLP160
SPECI CYNL 132259Z AUTO 24004KT 9SM VV023 M09/M11 A2985 RMK AO1 SLP160
SPECI CYNL 132256Z AUTO 24005KT 9SM VV028 M09/M11 A2985 RMK AO1 SLP161
SPECI CYNL 132235Z AUTO 25006KT 7SM VV031 M08/M11 A2985 RMK AO1 SLP161
SPECI CYNL 132232Z AUTO 25006KT 4SM VV028 M08/M11 A2985 RMK AO1 SLP160
SPECI CYNL 132222Z AUTO 25006KT 9SM VV030 M08/M11 A2986 RMK AO1 SLP161
SPECI CYNL 132221Z AUTO 25006KT 9SM VV029 M08/M11 A2986 RMK AO1 SLP161
SPECI CYNL 132220Z AUTO 24006KT 9SM VV030 M08/M11 A2986 RMK AO1 SLP161
SPECI CYNL 132219Z AUTO 24006KT 9SM VV029 M08/M11 A2986 RMK AO1 SLP161
SPECI CYNL 132214Z AUTO 24005KT 9SM VV030 M08/M11 A2986 RMK AO1 SLP161
SPECI CYNL 132213Z AUTO 24005KT 9SM VV027 M08/M11 A2986 RMK AO1 SLP162
METAR CYNL 132200Z AUTO 24005KT 9SM VV019 M08/M11 A2986 RMK AO1 SLP163
SPECI CYNL 132114Z AUTO 24008KT 9SM VV024 M08/M11 A2986 RMK AO1 SLP164
SPECI CYNL 132113Z AUTO 24008KT 9SM FEW012 SCT023 OVC030 M08/M11 A2986 RMK AO1 SLP164
SPECI CYNL 132112Z AUTO 24008KT 9SM FEW012 OVC028 M08/M11 A2987 RMK AO1 SLP165
SPECI CYNL 132108Z AUTO 24008KT 9SM FEW012 OVC030 M08/M11 A2987 RMK AO1 SLP166
SPECI CYNL 132105Z AUTO 25007KT 9SM VV029 M08/M11 A2987 RMK AO1 SLP166
METAR CYNL 132100Z AUTO 24006KT 9SM VV032 M08/M10 A2987 RMK AO1 SLP167
SPECI CYNL 132049Z AUTO 25005KT 9SM VV030 M08/M11 A2988 RMK AO1 SLP168
SPECI CYNL 132032Z AUTO 25008KT 5SM VV025 M08/M10 A2988 RMK AO1 SLP170
METAR CYNL 132000Z AUTO 24007KT 6SM FEW012 OVC020 M07/M10 A2989 RMK AO1 SLP172
SPECI CYNL 131920Z AUTO 25007KT 5SM VV015 M07/M10 A2989 RMK AO1 SLP173
METAR CYNL 131900Z AUTO 24005KT 4SM VV013 M07/M10 A2989 RMK AO1 SLP174
SPECI CYNL 131847Z AUTO 24006KT 9SM VV010 M07/M10 A2990 RMK AO1 SLP176
SPECI CYNL 131829Z AUTO 24007KT 4SM VV009 M07/M10 A2990 RMK AO1 SLP177
SPECI CYNL 131826Z AUTO 25006KT 4SM VV010 M07/M10 A2990 RMK AO1 SLP177
SPECI CYNL 131825Z AUTO 25006KT 4SM VV009 M07/M10 A2990 RMK AO1 SLP177
SPECI CYNL 131821Z AUTO 25006KT 4SM VV010 M08/M10 A2990 RMK AO1 SLP177
METAR CYNL 131800Z AUTO 25008KT 9SM FEW006 SCT200 M08/M11 A2991 RMK AO1 SLP179
SPECI CYNL 131747Z AUTO 25006KT 5SM FEW006 SCT010 M08/M10 A2991 RMK AO1 SLP179
SPECI CYNL 131745Z AUTO 25006KT 5SM FEW006 SCT008 BKN010 M08/M10 A2991 RMK AO1 SLP179
SPECI CYNL 131739Z AUTO 25007KT 4SM VV008 M08/M10 A2991 RMK AO1 SLP180
SPECI CYNL 131735Z AUTO 25007KT 5SM FEW008 BKN010 M08/M11 A2991 RMK AO1 SLP180
SPECI CYNL 131721Z AUTO 26005KT 6SM SCT009 M08/M11 A2991 RMK AO1 SLP180
METAR CYNL 131700Z AUTO 25007KT 9SM FEW009 BKN013 M08/M11 A2992 RMK AO1 SLP182
SPECI CYNL 131653Z AUTO 25006KT 9SM FEW009 BKN013 M08/M11 A2991 RMK AO1 SLP181
METAR CYNL 131600Z AUTO 25003KT 9SM OVC012 M09/M11 A2991 RMK AO1 SLP181
SPECI CYNL 131505Z AUTO 27005KT 9SM BKN010 OVC064 M10/M12 A2991 RMK AO1 SLP182
METAR CYNL 131500Z AUTO 27004KT 9SM SCT010 OVC064 M10/M12 A2990 RMK AO1 SLP181
METAR CYNL 131400Z AUTO 27003KT 9SM OVC062 M11/M13 A2990 RMK AO1 SLP180
SPECI CYNL 131302Z AUTO 26003KT 9SM FEW006 OVC060 M11/M14 A2990 RMK AO1 SLP180
METAR CYNL 131300Z AUTO 26003KT 9SM OVC060 M11/M14 A2990 RMK AO1 SLP180
METAR CYNL 131200Z AUTO 26003KT 9SM OVC060 M12/M14 A2990 RMK AO1 SLP181
METAR CYNL 131100Z AUTO 29004KT 9SM FEW024 OVC060 M12/M14 A2990 RMK AO1 SLP180
METAR CYNL 131000Z AUTO 31005KT 9SM OVC060 M13/M15 A2988 RMK AO1 SLP175
METAR CYNL 130900Z AUTO 30006KT 9SM OVC064 M13/M15 A2987 RMK AO1 SLP171
SPECI CYNL 130827Z AUTO 29005KT 9SM SCT008 OVC066 M13/M15 A2986 RMK AO1 SLP169
METAR CYNL 130800Z AUTO 31007KT 9SM OVC008 M12/M15 A2985 RMK AO1 SLP166
SPECI CYNL 130745Z AUTO 30007G16KT 9SM BKN009 OVC011 M13/M15 A2985 RMK AO1 SLP164
SPECI CYNL 130715Z AUTO 30005KT 9SM BKN012 M13/M15 A2984 RMK AO1 SLP163
METAR CYNL 130700Z AUTO 31006KT 9SM CLR M13/M15 A2984 RMK AO1 SLP162
METAR CYNL 130600Z AUTO 31004KT 9SM OVC035 M12/M15 A2983 RMK AO1 SLP156
METAR CYNL 130500Z AUTO 32005KT 9SM OVC035 M12/M15 A2981 RMK AO1 PRESRR SLP152
METAR CYNL 130400Z AUTO ///// 9SM SCT016 OVC035 M13/M15 A2979 RMK AO1 SLP144
SPECI CYNL 130354Z AUTO 31009KT 9SM SCT016 OVC035 M13/M15 A2979 RMK AO1 PRESRR SLP144
METAR CYNL 130300Z AUTO 31007KT 9SM SCT013 BKN017 OVC021 M12/M15 A2977 RMK AO1 PRESRR SLP139
SPECI CYNL 130256Z AUTO 32006KT 9SM SCT013 BKN016 OVC021 M12/M15 A2977 RMK AO1 SLP139
SPECI CYNL 130255Z AUTO ///// 9SM BKN013 OVC021 M12/M15 A2977 RMK AO1 SLP139
METAR CYNL 130200Z AUTO 31008KT 9SM OVC016 M12/M16 A2975 RMK AO1 SLP130
METAR CYNL 130100Z AUTO 30005KT 9SM OVC018 M12/M16 A2974 RMK AO1 SLP129
METAR CYNL 130000Z AUTO 32009KT 9SM OVC017 M12/M16 A2972 RMK AO1 SLP125
METAR CYNL 122300Z AUTO 31008KT 9SM OVC017 M12/M16 A2971 RMK AO1 SLP123
METAR CYNL 122200Z AUTO ///// 8SM OVC016 M12/M16 A2969 RMK AO1 SLP122
SPECI CYNL 122108Z AUTO ///// 3SM OVC015 M12/M16 A2967 RMK AO1 SLP115
SPECI CYNL 122107Z AUTO 30010KT 2 1/2SM OVC015 M12/M16 A2967 RMK AO1 SLP115
METAR CYNL 122100Z AUTO 31009KT 4SM OVC015 M12/M15 A2967 RMK AO1 SLP114
SPECI CYNL 122006Z AUTO 31007KT 9SM OVC015 M12/M16 A2966 RMK AO1 SLP111
METAR CYNL 122000Z AUTO 30008KT 8SM OVC014 M12/M16 A2966 RMK AO1 SLP111
METAR CYNL 121900Z AUTO 31007KT 9SM OVC012 M13/M16 A2966 RMK AO1 SLP111
METAR CYNL 121800Z AUTO ///// 9SM OVC012 M14/M17 A2966 RMK AO1 SLP109
SPECI CYNL 121731Z AUTO ///// 6SM FEW005 OVC011 M13/M16 A2966 RMK AO1 SLP108
SPECI CYNL 121707Z AUTO ///// 3SM OVC012 M13/M16 A2966 RMK AO1 SLP109
SPECI CYNL 121701Z AUTO ///// 2 1/2SM OVC011 M13/M16 A2966 RMK AO1 SLP108
METAR CYNL 121700Z AUTO ///// 3SM OVC011 M13/M16 A2966 RMK AO1 SLP108
SPECI CYNL 121656Z AUTO ///// 3SM VV012 M13/M16 A2966 RMK AO1 SLP108
SPECI CYNL 121649Z AUTO ///// 2 1/2SM OVC011 M13/M16 A2966 RMK AO1 SLP108
SPECI CYNL 121626Z AUTO ///// 3SM OVC013 M13/M16 A2966 RMK AO1 SLP108
SPECI CYNL 121623Z AUTO ///// 2SM OVC013 M13/M16 A2966 RMK AO1 SLP108
SPECI CYNL 121622Z AUTO ///// 1 1/2SM SCT011 OVC015 M13/M16 A2966 RMK AO1 SLP108
SPECI CYNL 121621Z AUTO ///// 1 1/2SM BKN011 OVC015 M13/M16 A2966 RMK AO1 SLP108
SPECI CYNL 121620Z AUTO ///// 1 1/2SM SCT011 OVC015 M13/M16 A2966 RMK AO1 SLP109
SPECI CYNL 121619Z AUTO ///// 2SM BKN012 OVC015 M13/M16 A2967 RMK AO1 SLP109
METAR CYNL 121600Z AUTO ///// 9SM OVC011 M13/M16 A2966 RMK AO1 SLP107
SPECI CYNL 121539Z AUTO ///// 9SM BKN010 OVC012 M13/M15 A2965 RMK AO1 SLP102
SPECI CYNL 121529Z AUTO ///// 9SM BKN009 OVC012 M13/M15 A2965 RMK AO1 SLP101
SPECI CYNL 121527Z AUTO ///// 4SM SCT009 OVC012 M13/M15 A2965 RMK AO1 SLP100
SPECI CYNL 121526Z AUTO 27008KT 3SM VV012 M13/M15 A2965 RMK AO1 SLP100
SPECI CYNL 121524Z AUTO 28006KT 2SM VV012 M13/M15 A2965 RMK AO1 SLP100
SPECI CYNL 121522Z AUTO 29006KT 2 1/2SM BKN009 OVC012 M13/M15 A2964 RMK AO1 SLP100
SPECI CYNL 121506Z AUTO ///// 9SM BKN008 OVC011 M13/M15 A2964 RMK AO1 SLP099
METAR CYNL 121500Z AUTO 29005KT 6SM FEW007 BKN010 OVC015 M13/M15 A2964 RMK AO1 SLP099
SPECI CYNL 121438Z AUTO 30005KT 3SM SCT008 BKN010 OVC015 M13/M15 A2963 RMK AO1 SLP094
METAR CYNL 121400Z AUTO 26005KT 220V290 9SM OVC009 M15/M17 A2963 RMK AO1 SLP096
SPECI CYNL 121346Z AUTO 22002KT 9SM SCT005 OVC009 M16/M19 A2963 RMK AO1 SLP096
SPECI CYNL 121344Z AUTO 22002KT 9SM SCT005 OVC010 M16/M19 A2963 RMK AO1 SLP096
SPECI CYNL 121343Z AUTO 22002KT 9SM SCT005 OVC009 M16/M19 A2963 RMK AO1 SLP096
SPECI CYNL 121340Z AUTO 21002KT 9SM SCT005 OVC010 M16/M19 A2963 RMK AO1 SLP096
METAR CYNL 121300Z AUTO 00000KT 9SM OVC007 M17/M19 A2963 RMK AO1 SLP097
SPECI CYNL 121216Z AUTO 29004KT 9SM BKN006 M17/M20 A2964 RMK AO1 SLP102
SPECI CYNL 121205Z AUTO 29005KT 9SM FEW006 M18/M21 A2965 RMK AO1 SLP104
METAR CYNL 121200Z AUTO 28004KT 9SM CLR M19/M21 A2964 RMK AO1 SLP103
METAR CYNL 121100Z AUTO 00000KT 9SM CLR M22/M25 A2965 RMK AO1 SLP110
METAR CYNL 121000Z AUTO 23006KT 9SM CLR M22/M25 A2967 RMK AO1 SLP115
METAR CYNL 120900Z AUTO 22003KT 9SM CLR M22/M25 A2968 RMK AO1 SLP116
METAR CYNL 120800Z AUTO 21003KT 9SM CLR M21/M24 A2969 RMK AO1 PRESFR SLP118
METAR CYNL 120700Z AUTO 19004KT 9SM CLR M19/M22 A2971 RMK AO1 SLP124
METAR CYNL 120600Z AUTO 16004KT 9SM CLR M18/M21 A2972 RMK AO1 PRESFR SLP128
METAR CYNL 120500Z AUTO 19005KT 9SM CLR M18/M21 A2975 RMK AO1 PRESFR SLP140
METAR CYNL 120400Z AUTO 18005KT 9SM CLR M17/M20 A2978 RMK AO1 PRESFR SLP149
METAR CYNL 120300Z AUTO 20006KT 9SM CLR M16/M19 A2982 RMK AO1 PRESFR SLP162
METAR CYNL 120200Z AUTO 19006KT 9SM CLR M15/M19 A2986 RMK AO1 SLP175
METAR CYNL 120100Z AUTO ///// 9SM CLR M14/M19 A2987 RMK AO1 PRESFR SLP177
METAR CYNL 120000Z AUTO ///// 9SM CLR M14/M18 A2990 RMK AO1 PRESFR SLP188
METAR CYNL 112300Z AUTO 17006KT 9SM CLR M14/M18 A2996 RMK AO1 PRESFR SLP208
METAR CYNL 112200Z AUTO 19009KT 9SM CLR M12/M18 A3000 RMK AO1 PRESFR SLP222
METAR CYNL 112100Z AUTO 17008KT 9SM CLR M12/M17 A3004 RMK AO1 PRESFR SLP236
METAR CYNL 112000Z AUTO 19009KT 9SM CLR M12/M18 A3009 RMK AO1 PRESFR SLP254
METAR CYNL 111900Z AUTO 20008KT 9SM FEW140 M12/M18 A3011 RMK AO1 PRESFR SLP264
METAR CYNL 111800Z AUTO 19008KT 9SM BKN130 M15/M19 A3016 RMK AO1 PRESFR SLP284
METAR CYNL 111700Z AUTO ///// 9SM FEW130 M15/M19 A3021 RMK AO1 PRESFR SLP302
METAR CYNL 111600Z AUTO 21008KT 9SM FEW150 M16/M19 A3023 RMK AO1 PRESFR SLP314
METAR CYNL 111500Z AUTO 20005KT 9SM FEW080 M16/M19 A3027 RMK AO1 PRESFR SLP329
METAR CYNL 111400Z AUTO 22006KT 9SM SCT017 BKN080 M15/M19 A3029 RMK AO1 SLP338
SPECI CYNL 111356Z AUTO 22006KT 9SM SCT018 BKN080 M15/M18 A3029 RMK AO1 PRESFR SLP338
SPECI CYNL 111331Z AUTO 22006KT 9SM BKN018 M15/M18 A3030 RMK AO1 PRESFR SLP341
SPECI CYNL 111321Z AUTO 23006KT 9SM SCT017 M15/M18 A3031 RMK AO1 PRESFR SLP342
METAR CYNL 111300Z AUTO 23006KT 9SM OVC017 M15/M18 A3031 RMK AO1 PRESFR SLP344
SPECI CYNL 111208Z AUTO 21007KT 9SM OVC015 M16/M19 A3033 RMK AO1 SLP346
METAR CYNL 111200Z AUTO 22006KT 9SM OVC014 M16/M19 A3034 RMK AO1 SLP347
SPECI CYNL 111116Z AUTO 22004KT 9SM OVC014 M16/M19 A3035 RMK AO1 PRESFR SLP350
METAR CYNL 111100Z AUTO 22003KT 9SM OVC015 M17/M20 A3035 RMK AO1 PRESFR SLP352
METAR CYNL 111000Z AUTO 21003KT 9SM OVC017 M18/M21 A3038 RMK AO1 PRESFR SLP359
METAR CYNL 110900Z AUTO 25002KT 9SM OVC023 M20/M23 A3040 RMK AO1 SLP367
SPECI CYNL 110843Z AUTO 23002KT 9SM OVC024 M20/M23 A3040 RMK AO1 SLP368
METAR CYNL 110800Z AUTO 23002KT 9SM OVC026 M20/M23 A3041 RMK AO1 SLP371
METAR CYNL 110700Z AUTO 00000KT 9SM OVC027 M20/M23 A3042 RMK AO1 SLP374
METAR CYNL 110600Z AUTO 24003KT 9SM OVC028 M21/M24 A3042 RMK AO1 SLP377
METAR CYNL 110500Z AUTO 25002KT 9SM OVC028 M22/M25 A3042 RMK AO1 SLP379
METAR CYNL 110400Z AUTO 00000KT 9SM OVC028 M24/M27 A3043 RMK AO1 SLP384
SPECI CYNL 110324Z AUTO 00000KT 9SM OVC029 M25/M29 A3043 RMK AO1 SLP389
METAR CYNL 110300Z AUTO 00000KT 9SM OVC031 M26/M30 A3043 RMK AO1 SLP389
METAR CYNL 110200Z AUTO 00000KT 9SM CLR M25/M29 A3042 RMK AO1 SLP387
METAR CYNL 110100Z AUTO 00000KT 9SM CLR M21/M24 A3042 RMK AO1 SLP381
METAR CYNL 110000Z AUTO 33004KT 9SM CLR M19/M22 A3041 RMK AO1 SLP375
METAR CYNL 102300Z AUTO 31005KT 9SM FEW007 SCT015 M18/M21 A3039 RMK AO1 SLP370
SPECI CYNL 102256Z AUTO 32006KT 9SM FEW007 SCT015 M17/M21 A3039 RMK AO1 SLP370
SPECI CYNL 102252Z AUTO 31007KT 6SM SCT007 BKN015 M17/M21 A3039 RMK AO1 SLP370
SPECI CYNL 102250Z AUTO 30007KT 5SM VV009 M17/M21 A3039 RMK AO1 SLP369
SPECI CYNL 102238Z AUTO 31006KT 8SM FEW008 BKN013 M17/M21 A3039 RMK AO1 SLP369
SPECI CYNL 102237Z AUTO 31006KT 7SM FEW008 SCT013 BKN016 M17/M21 A3039 RMK AO1 SLP369
SPECI CYNL 102234Z AUTO 32007KT 7SM FEW007 BKN012 BKN036 M17/M21 A3039 RMK AO1 SLP369
SPECI CYNL 102227Z AUTO 32006G16KT 3SM VV013 M17/M21 A3039 RMK AO1 SLP368
SPECI CYNL 102225Z AUTO 32009G16KT 2 1/2SM VV013 M17/M21 A3039 RMK AO1 SLP368
SPECI CYNL 102217Z AUTO 32007KT 3SM VV012 M17/M20 A3039 RMK AO1 SLP367
SPECI CYNL 102214Z AUTO 32006KT 2 1/2SM VV011 M17/M20 A3039 RMK AO1 SLP367
SPECI CYNL 102213Z AUTO 32007KT 3SM VV011 M17/M20 A3039 RMK AO1 SLP367
METAR CYNL 102200Z AUTO 30007KT 9SM FEW007 SCT024 BKN070 M16/M20 A3038 RMK AO1 SLP366
SPECI CYNL 102150Z AUTO 30009KT 9SM FEW007 SCT012 BKN072 M16/M21 A3038 RMK AO1 SLP365
SPECI CYNL 102149Z AUTO 31008KT 9SM FEW007 SCT012 BKN025 M16/M21 A3038 RMK AO1 SLP365
SPECI CYNL 102146Z AUTO 32006KT 9SM FEW007 SCT011 BKN016 M16/M20 A3038 RMK AO1 SLP364
SPECI CYNL 102143Z AUTO 31007KT 6SM FEW007 BKN011 BKN025 M16/M20 A3038 RMK AO1 SLP364
SPECI CYNL 102141Z AUTO 31007KT 7SM VV009 M16/M20 A3038 RMK AO1 SLP364
SPECI CYNL 102134Z AUTO 31009KT 6SM SCT009 BKN013 BKN017 M16/M20 A3037 RMK AO1 SLP364
SPECI CYNL 102128Z AUTO 31006KT 3SM VV014 M16/M20 A3037 RMK AO1 SLP363
SPECI CYNL 102126Z AUTO ///// 3SM VV015 M16/M20 A3037 RMK AO1 SLP362
SPECI CYNL 102125Z AUTO ///// 2 1/2SM VV015 M16/M20 A3037 RMK AO1 SLP362
SPECI CYNL 102117Z AUTO ///// 2SM VV012 M16/M20 A3037 RMK AO1 SLP363
SPECI CYNL 102110Z AUTO ///// 1 3/4SM VV013 M16/M20 A3037 RMK AO1 SLP363
SPECI CYNL 102108Z AUTO ///// 2SM VV013 M16/M20 A3037 RMK AO1 SLP362
SPECI CYNL 102106Z AUTO ///// 1 1/2SM VV013 M16/M20 A3037 RMK AO1 SLP362
SPECI CYNL 102104Z AUTO ///// 1 1/4SM VV013 M16/M20 A3037 RMK AO1 SLP362
SPECI CYNL 102102Z AUTO ///// 1 1/2SM VV012 M16/M20 A3037 RMK AO1 SLP362
METAR CYNL 102100Z AUTO ///// 2SM VV012 M16/M20 A3037 RMK AO1 SLP362
SPECI CYNL 102055Z AUTO 31008G19KT 2SM VV012 M16/M20 A3037 RMK AO1 SLP363
SPECI CYNL 102050Z AUTO ///// 1 1/2SM VV010 M16/M20 A3037 RMK AO1 SLP363
SPECI CYNL 102047Z AUTO ///// 1 1/4SM VV013 M16/M20 A3037 RMK AO1 SLP364
SPECI CYNL 102046Z AUTO 30010G19KT 1 3/4SM VV014 M16/M20 A3037 RMK AO1 SLP364
SPECI CYNL 102040Z AUTO 32007KT 2 1/2SM VV016 M16/M20 A3037 RMK AO1 SLP364
SPECI CYNL 102038Z AUTO 31006KT 3SM VV016 M16/M20 A3037 RMK AO1 SLP363
SPECI CYNL 102034Z AUTO ///// 2 1/2SM VV018 M16/M20 A3037 RMK AO1 SLP363
SPECI CYNL 102030Z AUTO ///// 4SM VV020 M16/M20 A3037 RMK AO1 SLP363
SPECI CYNL 102016Z AUTO ///// 7SM FEW007 SCT013 M16/M20 A3037 RMK AO1 SLP361
SPECI CYNL 102012Z AUTO ///// 5SM FEW007 SCT012 BKN015 M16/M20 A3037 RMK AO1 SLP361
SPECI CYNL 102007Z AUTO 32008KT 3SM FEW007 BKN013 M16/M20 A3036 RMK AO1 SLP361
SPECI CYNL 102006Z AUTO 31007KT 3SM FEW007 SCT011 BKN015 M16/M20 A3037 RMK AO1 SLP361
SPECI CYNL 102005Z AUTO 32007KT 4SM FEW007 BKN012 BKN015 M16/M20 A3037 RMK AO1 SLP361
SPECI CYNL 102003Z AUTO ///// 4SM FEW007 SCT011 BKN015 M16/M20 A3036 RMK AO1 SLP361
SPECI CYNL 102002Z AUTO ///// 2SM FEW007 SCT011 BKN015 M16/M20 A3036 RMK AO1 SLP361
SPECI CYNL 102001Z AUTO ///// 3/4SM FEW007 BKN012 BKN015 M16/M20 A3036 RMK AO1 SLP361
METAR CYNL 102000Z AUTO ///// 1/2SM VV010 M16/M20 A3036 RMK AO1 SLP361
SPECI CYNL 101959Z AUTO ///// 1/2SM VV011 M16/M20 A3036 RMK AO1 SLP361
SPECI CYNL 101958Z AUTO ///// 1SM VV012 M16/M20 A3036 RMK AO1 SLP361
SPECI CYNL 101957Z AUTO 30007KT 2SM VV012 M16/M20 A3036 RMK AO1 SLP361
SPECI CYNL 101955Z AUTO 31008KT 3SM VV012 M16/M20 A3036 RMK AO1 SLP361
SPECI CYNL 101950Z AUTO 31006G15KT 2 1/2SM VV012 M16/M20 A3036 RMK AO1 SLP361
SPECI CYNL 101948Z AUTO 32006G15KT 3SM VV011 M16/M20 A3036 RMK AO1 SLP360
SPECI CYNL 101947Z AUTO 31007G15KT 2 1/2SM VV011 M16/M20 A3036 RMK AO1 SLP360
SPECI CYNL 101944Z AUTO ///// 3SM VV012 M16/M20 A3036 RMK AO1 SLP360
SPECI CYNL 101941Z AUTO ///// 2 1/2SM VV014 M16/M20 A3036 RMK AO1 SLP360
SPECI CYNL 101940Z AUTO 31008G15KT 3SM VV015 M16/M20 A3036 RMK AO1 SLP360
SPECI CYNL 101931Z AUTO ///// 2 1/2SM VV015 M16/M20 A3036 RMK AO1 SLP360
SPECI CYNL 101926Z AUTO ///// 3SM VV015 M16/M20 A3036 RMK AO1 SLP360
SPECI CYNL 101925Z AUTO ///// 2 1/2SM VV015 M16/M20 A3036 RMK AO1 SLP360
SPECI CYNL 101924Z AUTO ///// 1 3/4SM VV015 M16/M20 A3036 RMK AO1 SLP360
SPECI CYNL 101920Z AUTO ///// 1 3/4SM VV013 M16/M20 A3036 RMK AO1 SLP359
SPECI CYNL 101919Z AUTO ///// 2SM VV013 M16/M20 A3036 RMK AO1 SLP359
SPECI CYNL 101913Z AUTO ///// 2 1/2SM VV017 M16/M20 A3036 RMK AO1 SLP359
SPECI CYNL 101911Z AUTO ///// 4SM VV015 M16/M20 A3036 RMK AO1 SLP358
SPECI CYNL 101908Z AUTO ///// 3SM VV012 M16/M20 A3036 RMK AO1 SLP358
SPECI CYNL 101904Z AUTO ///// 2SM VV012 M16/M20 A3035 RMK AO1 SLP358
SPECI CYNL 101901Z AUTO ///// 1 1/2SM VV013 M16/M20 A3035 RMK AO1 SLP358
METAR CYNL 101900Z AUTO ///// 1 1/4SM VV014 M16/M20 A3035 RMK AO1 SLP358
SPECI CYNL 101859Z AUTO ///// 1 1/2SM VV015 M16/M20 A3035 RMK AO1 SLP359
SPECI CYNL 101857Z AUTO ///// 1SM VV014 M16/M20 A3035 RMK AO1 SLP360
SPECI CYNL 101855Z AUTO ///// 1 1/4SM VV016 M16/M20 A3035 RMK AO1 SLP360
SPECI CYNL 101853Z AUTO ///// 1 3/4SM VV016 M16/M20 A3035 RMK AO1 SLP360
SPECI CYNL 101850Z AUTO ///// 2 1/2SM VV015 M16/M20 A3035 RMK AO1 SLP360
SPECI CYNL 101848Z AUTO ///// 2 1/2SM VV014 M16/M20 A3036 RMK AO1 SLP360
SPECI CYNL 101845Z AUTO ///// 3SM VV014 M16/M20 A3036 RMK AO1 SLP360
SPECI CYNL 101843Z AUTO ///// 2SM VV013 M16/M20 A3036 RMK AO1 SLP361
SPECI CYNL 101840Z AUTO ///// 1 3/4SM VV012 M16/M20 A3036 RMK AO1 SLP361
SPECI CYNL 101836Z AUTO ///// 2 1/2SM VV012 M16/M20 A3036 RMK AO1 SLP361
SPECI CYNL 101835Z AUTO ///// 3SM VV012 M16/M20 A3036 RMK AO1 SLP361
SPECI CYNL 101833Z AUTO ///// 2 1/2SM VV011 M16/M20 A3036 RMK AO1 SLP361
SPECI CYNL 101825Z AUTO 30008KT 4SM VV014 M16/M20 A3036 RMK AO1 SLP362
SPECI CYNL 101822Z AUTO ///// 4SM VV015 M16/M20 A3036 RMK AO1 SLP362
SPECI CYNL 101801Z AUTO 30009KT 3SM VV012 M16/M20 A3036 RMK AO1 SLP362
METAR CYNL 101800Z AUTO 31009KT 2 1/2SM VV012 M16/M20 A3036 RMK AO1 SLP362
SPECI CYNL 101744Z AUTO ///// 2 1/2SM VV012 M17/M20 A3036 RMK AO1 SLP362
SPECI CYNL 101722Z AUTO 29008KT 6SM VV010 M17/M21 A3036 RMK AO1 SLP362
SPECI CYNL 101709Z AUTO 30007KT 3SM VV009 M17/M21 A3036 RMK AO1 SLP362
METAR CYNL 101700Z AUTO ///// 4SM VV010 M17/M21 A3035 RMK AO1 SLP363
SPECI CYNL 101659Z AUTO ///// 4SM VV010 M17/M21 A3035 RMK AO1 SLP363
SPECI CYNL 101649Z AUTO 30008KT 3SM VV009 M17/M21 A3035 RMK AO1 SLP362
SPECI CYNL 101632Z AUTO 29009G16KT 4SM VV010 M18/M21 A3035 RMK AO1 SLP362
SPECI CYNL 101629Z AUTO 29008G16KT 7SM VV009 M18/M21 A3035 RMK AO1 SLP362
SPECI CYNL 101622Z AUTO 30009G16KT 5SM VV010 M18/M21 A3035 RMK AO1 SLP362
SPECI CYNL 101620Z AUTO 29008G16KT 6SM FEW006 BKN008 M18/M21 A3035 RMK AO1 SLP362
SPECI CYNL 101619Z AUTO 29007G16KT 6SM FEW006 SCT008 BKN010 M18/M21 A3035 RMK AO1 SLP362
SPECI CYNL 101614Z AUTO 29009G16KT 6SM SCT006 M18/M22 A3035 RMK AO1 SLP362
SPECI CYNL 101607Z AUTO 29007KT 4SM VV009 M18/M22 A3035 RMK AO1 SLP362
METAR CYNL 101600Z AUTO 28008KT 9SM FEW008 SCT010 M18/M22 A3035 RMK AO1 SLP362
SPECI CYNL 101553Z AUTO 28009KT 9SM FEW007 SCT010 M18/M22 A3035 RMK AO1 SLP361
SPECI CYNL 101552Z AUTO 28008KT 9SM SCT008 BKN016 M18/M22 A3035 RMK AO1 SLP361
SPECI CYNL 101547Z AUTO 28008KT 9SM FEW006 SCT008 BKN011 M18/M22 A3035 RMK AO1 SLP362
SPECI CYNL 101546Z AUTO 28008KT 8SM VV010 M18/M22 A3035 RMK AO1 SLP362
SPECI CYNL 101544Z AUTO 27007KT 7SM VV009 M18/M22 A3035 RMK AO1 SLP362
SPECI CYNL 101543Z AUTO 28006KT 7SM VV010 M18/M22 A3035 RMK AO1 SLP362
SPECI CYNL 101534Z AUTO 29008KT 4SM VV009 M19/M22 A3035 RMK AO1 SLP361
SPECI CYNL 101531Z AUTO 28009KT 4SM VV010 M19/M22 A3035 RMK AO1 SLP362
SPECI CYNL 101530Z AUTO 29008KT 3SM VV009 M19/M22 A3035 RMK AO1 SLP362
SPECI CYNL 101526Z AUTO 29007KT 3SM VV010 M19/M22 A3035 RMK AO1 SLP362
SPECI CYNL 101521Z AUTO 29009KT 2 1/2SM VV010 M19/M22 A3035 RMK AO1 SLP362
SPECI CYNL 101519Z AUTO 30007KT 4SM VV010 M19/M22 A3035 RMK AO1 SLP362
SPECI CYNL 101514Z AUTO 29006KT 3SM VV007 M19/M23 A3035 RMK AO1 SLP362
SPECI CYNL 101508Z AUTO 29008KT 2 1/2SM VV009 M19/M23 A3035 RMK AO1 SLP362
SPECI CYNL 101503Z AUTO 29007KT 3SM VV009 M19/M23 A3035 RMK AO1 SLP362
METAR CYNL 101500Z AUTO 29006KT 3SM VV011 M20/M23 A3035 RMK AO1 SLP363
SPECI CYNL 101458Z AUTO 29007KT 3SM VV012 M20/M23 A3035 RMK AO1 SLP362
SPECI CYNL 101419Z AUTO 29007KT 9SM SCT006 M20/M24 A3035 RMK AO1 SLP363
METAR CYNL 101400Z AUTO 29007KT 5SM SCT006 BKN008 M20/M24 A3036 RMK AO1 SLP364
SPECI CYNL 101359Z AUTO 30008KT 5SM SCT006 BKN008 M20/M24 A3036 RMK AO1 SLP363
SPECI CYNL 101358Z AUTO 30007KT 5SM SCT006 BKN010 M20/M24 A3036 RMK AO1 SLP363
SPECI CYNL 101356Z AUTO 30009KT 5SM SCT006 M20/M24 A3035 RMK AO1 SLP363
SPECI CYNL 101354Z AUTO 30006KT 5SM VV006 M20/M24 A3036 RMK AO1 SLP363
SPECI CYNL 101345Z AUTO 30009KT 9SM SCT007 M20/M24 A3036 RMK AO1 SLP363
SPECI CYNL 101340Z AUTO 30008KT 7SM VV007 M20/M24 A3036 RMK AO1 SLP363
METAR CYNL 101300Z AUTO 29010KT 9SM FEW006 M21/M24 A3036 RMK AO1 SLP365
SPECI CYNL 101238Z AUTO 29007KT 9SM SCT006 M21/M24 A3036 RMK AO1 SLP366
SPECI CYNL 101227Z AUTO 28007KT 3SM SCT005 BKN006 M21/M25 A3037 RMK AO1 SLP367
SPECI CYNL 101222Z AUTO 28007KT 9SM SCT004 M21/M25 A3037 RMK AO1 SLP368
SPECI CYNL 101219Z AUTO 28008KT 9SM BKN004 M21/M25 A3037 RMK AO1 SLP368
SPECI CYNL 101215Z AUTO 29007KT 9SM BKN005 M21/M25 A3037 RMK AO1 SLP368
SPECI CYNL 101201Z AUTO ///// 8SM VV004 M21/M25 A3037 RMK AO1 SLP369
METAR CYNL 101200Z AUTO ///// 8SM VV005 M21/M25 A3037 RMK AO1 SLP369
SPECI CYNL 101150Z AUTO 29008KT 4SM VV005 M21/M25 A3037 RMK AO1 SLP369
SPECI CYNL 101105Z AUTO ///// 9SM SCT006 M22/M25 A3037 RMK AO1 SLP371
METAR CYNL 101100Z AUTO 30004KT 8SM BKN006 M22/M26 A3037 RMK AO1 SLP371
SPECI CYNL 101051Z AUTO ///// 3SM VV006 M22/M26 A3038 RMK AO1 SLP371
SPECI CYNL 101050Z AUTO ///// 2 1/2SM VV006 M22/M26 A3038 RMK AO1 SLP371
SPECI CYNL 101045Z AUTO ///// 3SM VV006 M22/M26 A3038 RMK AO1 SLP371
SPECI CYNL 101041Z AUTO ///// 2 1/2SM VV005 M22/M26 A3038 RMK AO1 SLP371
SPECI CYNL 101026Z AUTO ///// 3SM VV006 M22/M26 A3038 RMK AO1 SLP371
SPECI CYNL 101022Z AUTO ///// 2SM VV006 M22/M26 A3038 RMK AO1 SLP371
SPECI CYNL 101020Z AUTO 29008KT 4SM VV006 M22/M26 A3038 RMK AO1 SLP371
METAR CYNL 101000Z AUTO ///// 7SM SCT006 OVC045 M22/M26 A3038 RMK AO1 SLP372
SPECI CYNL 100959Z AUTO ///// 7SM SCT006 OVC045 M22/M26 A3038 RMK AO1 SLP371
SPECI CYNL 100958Z AUTO ///// 7SM SCT006 BKN026 OVC045 M22/M26 A3038 RMK AO1 SLP370
SPECI CYNL 100917Z AUTO ///// 4SM VV009 M23/M27 A3038 RMK AO1 SLP373
SPECI CYNL 100909Z AUTO ///// 7SM FEW005 BKN020 OVC040 M23/M27 A3038 RMK AO1 SLP373
METAR CYNL 100900Z AUTO ///// 9SM OVC020 M24/M27 A3038 RMK AO1 SLP374
SPECI CYNL 100843Z AUTO ///// 9SM BKN022 M24/M28 A3038 RMK AO1 SLP373
SPECI CYNL 100813Z AUTO ///// 9SM FEW004 SCT015 M24/M28 A3038 RMK AO1 SLP373
SPECI CYNL 100805Z AUTO ///// 6SM SCT004 BKN016 M24/M28 A3038 RMK AO1 SLP373
METAR CYNL 100800Z AUTO ///// 4SM VV004 M24/M28 A3038 RMK AO1 SLP372
SPECI CYNL 100756Z AUTO ///// 5SM FEW004 OVC016 M24/M28 A3038 RMK AO1 SLP371
SPECI CYNL 100740Z AUTO ///// 9SM BKN018 M24/M28 A3038 RMK AO1 SLP373
METAR CYNL 100700Z AUTO ///// 9SM CLR M25/M29 A3038 RMK AO1 SLP372